
Distance (Route):
Temperature : 0°C
Humidity : 0%
Pressure : 0hPa| Receiver | Date | Latitude | Longitude | Direction | Speed | Altitude | Climb | Temperature | Humidity | Pressure | Voltage | Killtimer | Uptime | BKT | XDATA |
|---|---|---|---|---|---|---|---|---|---|---|---|---|---|---|---|
| RDZ2B | 2026-09-04 13:47:10 | 41.57018 | 8.78320 | 167° | 29km/h | 7879m | -5.5m/s | 0°C | 0% | 0hPa | 0V | 00:00:00 | 00:00:00 | 00:00:00 | |
| RDZ2B | 2026-09-04 13:46:31 | 41.57230 | 8.78195 | 160° | 27km/h | 8090m | -5.4m/s | 0°C | 0% | 0hPa | 0V | 00:00:00 | 00:00:00 | 00:00:00 | |
| RDZ2B | 2026-09-04 13:46:06 | 41.57368 | 8.78108 | 144° | 20km/h | 8230m | -5.7m/s | 0°C | 0% | 0hPa | 0V | 00:00:00 | 00:00:00 | 00:00:00 | |
| RDZ2B | 2026-09-04 13:45:36 | 41.57485 | 8.77939 | 134° | 29km/h | 8400m | -5.5m/s | 0°C | 0% | 0hPa | 0V | 00:00:00 | 00:00:00 | 00:00:00 | |
| RDZ2B | 2026-09-04 13:44:13 | 41.57958 | 8.77328 | 124° | 27km/h | 8876m | -5.7m/s | 0°C | 0% | 0hPa | 0V | 00:00:00 | 00:00:00 | 00:00:00 | |
| RDZ2B | 2026-09-04 13:43:52 | 41.58054 | 8.77164 | 129° | 31km/h | 9001m | -5.5m/s | 0°C | 0% | 0hPa | 0V | 00:00:00 | 00:00:00 | 00:00:00 | |
| RDZ2B | 2026-09-04 13:43:19 | 41.58233 | 8.76885 | 124° | 27km/h | 9196m | -6.1m/s | 0°C | 0% | 0hPa | 0V | 00:00:00 | 00:00:00 | 00:00:00 | |
| RDZ2B | 2026-09-04 13:42:51 | 41.58356 | 8.76660 | 122° | 35km/h | 9367m | -6.1m/s | 0°C | 0% | 0hPa | 0V | 00:00:00 | 00:00:00 | 00:00:00 | |
| RDZ2B | 2026-09-04 13:42:29 | 41.58498 | 8.76453 | 133° | 38km/h | 9497m | -6.4m/s | 0°C | 0% | 0hPa | 0V | 00:00:00 | 00:00:00 | 00:00:00 | |
| RDZ2B | 2026-09-04 13:41:35 | 41.58820 | 8.76021 | 145° | 31km/h | 9827m | -6.8m/s | 0°C | 0% | 0hPa | 0V | 00:00:00 | 00:00:00 | 00:00:00 | |
| RDZBGO | 2026-09-04 13:41:28 | 41.58862 | 8.75988 | 153° | 27km/h | 9871m | -5.2m/s | 0°C | 0% | 0hPa | 0V | 00:00:00 | 00:00:00 | 00:00:00 | |
| RDZBGO | 2026-09-04 13:41:07 | 41.58995 | 8.75912 | 155° | 27km/h | 10002m | -6.4m/s | 0°C | 0% | 0hPa | 0V | 00:00:00 | 00:00:00 | 00:00:00 | |
| RDZBGO | 2026-09-04 13:40:46 | 41.59152 | 8.75872 | 169° | 37km/h | 10135m | -5.9m/s | 0°C | 0% | 0hPa | 0V | 00:00:00 | 00:00:00 | 00:00:00 | |
| RDZBGO | 2026-09-04 13:40:24 | 41.59335 | 8.75832 | 171° | 29km/h | 10270m | -6.8m/s | 0°C | 0% | 0hPa | 0V | 00:00:00 | 00:00:00 | 00:00:00 | |
| RDZBGO | 2026-09-04 13:40:04 | 41.59482 | 8.75786 | 170° | 37km/h | 10392m | -6.7m/s | 0°C | 0% | 0hPa | 0V | 00:00:00 | 00:00:00 | 00:00:00 | |
| RDZBGO | 2026-09-04 13:39:44 | 41.59673 | 8.75749 | 170° | 46km/h | 10521m | -5.4m/s | 0°C | 0% | 0hPa | 0V | 00:00:00 | 00:00:00 | 00:00:00 | |
| RDZBGO | 2026-09-04 13:39:23 | 41.59920 | 8.75694 | 179° | 40km/h | 10650m | -5.8m/s | 0°C | 0% | 0hPa | 0V | 00:00:00 | 00:00:00 | 00:00:00 | |
| RDZBGO | 2026-09-04 13:39:03 | 41.60140 | 8.75703 | 184° | 37km/h | 10772m | -5.5m/s | 0°C | 0% | 0hPa | 0V | 00:00:00 | 00:00:00 | 00:00:00 | |
| RDZBGO | 2026-09-04 13:38:42 | 41.60319 | 8.75690 | 168° | 35km/h | 10902m | -6.2m/s | 0°C | 0% | 0hPa | 0V | 00:00:00 | 00:00:00 | 00:00:00 | |
| RDZBGO | 2026-09-04 13:38:21 | 41.60510 | 8.75627 | 169° | 44km/h | 11027m | -7.6m/s | 0°C | 0% | 0hPa | 0V | 00:00:00 | 00:00:00 | 00:00:00 | |
| RDZBGO | 2026-09-04 13:38:01 | 41.60747 | 8.75645 | 192° | 51km/h | 11155m | -5.9m/s | 0°C | 0% | 0hPa | 0V | 00:00:00 | 00:00:00 | 00:00:00 | |
| RDZ2B | 2026-09-04 13:37:59 | 41.60772 | 8.75653 | 192° | 49km/h | 11167m | -6.3m/s | 0°C | 0% | 0hPa | 0V | 00:00:00 | 00:00:00 | 00:00:00 | |
| RDZBGO | 2026-09-04 13:37:20 | 41.61226 | 8.75859 | 196° | 51km/h | 11411m | -6.7m/s | 0°C | 0% | 0hPa | 0V | 00:00:00 | 00:00:00 | 00:00:00 | |
| RDZ2B | 2026-09-04 13:37:12 | 41.61317 | 8.75889 | 187° | 38km/h | 11464m | -6.8m/s | 0°C | 0% | 0hPa | 0V | 00:00:00 | 00:00:00 | 00:00:00 | |
| RDZBGO | 2026-09-04 13:37:00 | 41.61439 | 8.75914 | 189° | 44km/h | 11543m | -6.3m/s | 0°C | 0% | 0hPa | 0V | 00:00:00 | 00:00:00 | 00:00:00 | |
| RDZ2B | 2026-09-04 13:36:33 | 41.61732 | 8.75922 | 177° | 42km/h | 11715m | -6.8m/s | 0°C | 0% | 0hPa | 0V | 00:00:00 | 00:00:00 | 00:00:00 | |
| RDZBGO | 2026-09-04 13:36:19 | 41.61914 | 8.75896 | 178° | 58km/h | 11808m | -6.7m/s | 0°C | 0% | 0hPa | 0V | 00:00:00 | 00:00:00 | 00:00:00 | |
| RDZBGO | 2026-09-04 13:35:59 | 41.62213 | 8.75892 | 185° | 62km/h | 11941m | -7.0m/s | 0°C | 0% | 0hPa | 0V | 00:00:00 | 00:00:00 | 00:00:00 | |
| RDZ2B | 2026-09-04 13:35:51 | 41.62338 | 8.75889 | 180° | 62km/h | 11996m | -7.0m/s | 0°C | 0% | 0hPa | 0V | 00:00:00 | 00:00:00 | 00:00:00 | |
| RDZBGO | 2026-09-04 13:35:38 | 41.62542 | 8.75910 | 185° | 60km/h | 12085m | -6.9m/s | 0°C | 0% | 0hPa | 0V | 00:00:00 | 00:00:00 | 00:00:00 | |
| RDZBGO | 2026-09-04 13:35:17 | 41.62840 | 8.75969 | 198° | 51km/h | 12229m | -7.1m/s | 0°C | 0% | 0hPa | 0V | 00:00:00 | 00:00:00 | 00:00:00 | |
| RDZBGO | 2026-09-04 13:34:56 | 41.63057 | 8.76052 | 195° | 38km/h | 12376m | -6.9m/s | 0°C | 0% | 0hPa | 0V | 00:00:00 | 00:00:00 | 00:00:00 | |
| RDZBGO | 2026-09-04 13:34:35 | 41.63270 | 8.76095 | 184° | 42km/h | 12522m | -7.1m/s | 0°C | 0% | 0hPa | 0V | 00:00:00 | 00:00:00 | 00:00:00 | |
| RDZBGO | 2026-09-04 13:34:14 | 41.63518 | 8.76097 | 179° | 57km/h | 12671m | -7.3m/s | 0°C | 0% | 0hPa | 0V | 00:00:00 | 00:00:00 | 00:00:00 | |
| RDZBGO | 2026-09-04 13:33:53 | 41.63797 | 8.76208 | 191° | 46km/h | 12820m | -7.2m/s | 0°C | 0% | 0hPa | 0V | 00:00:00 | 00:00:00 | 00:00:00 | |
| RDZ2B | 2026-09-04 13:33:39 | 41.63969 | 8.76208 | 179° | 51km/h | 12921m | -7.3m/s | 0°C | 0% | 0hPa | 0V | 00:00:00 | 00:00:00 | 00:00:00 | |
| RDZBGO | 2026-09-04 13:33:31 | 41.64067 | 8.76204 | 176° | 47km/h | 12979m | -7.3m/s | 0°C | 0% | 0hPa | 0V | 00:00:00 | 00:00:00 | 00:00:00 | |
| RDZBGO | 2026-09-04 13:33:10 | 41.64373 | 8.76208 | 183° | 62km/h | 13132m | -7.3m/s | 0°C | 0% | 0hPa | 0V | 00:00:00 | 00:00:00 | 00:00:00 | |
| RDZ2B | 2026-09-04 13:32:55 | 41.64606 | 8.76233 | 191° | 62km/h | 13241m | -7.3m/s | 0°C | 0% | 0hPa | 0V | 00:00:00 | 00:00:00 | 00:00:00 | |
| RDZBGO | 2026-09-04 13:32:50 | 41.64685 | 8.76256 | 196° | 64km/h | 13278m | -7.4m/s | 0°C | 0% | 0hPa | 0V | 00:00:00 | 00:00:00 | 00:00:00 | |
| RDZBGO | 2026-09-04 13:32:29 | 41.65024 | 8.76286 | 186° | 66km/h | 13434m | -7.5m/s | 0°C | 0% | 0hPa | 0V | 00:00:00 | 00:00:00 | 00:00:00 | |
| RDZ2B | 2026-09-04 13:32:19 | 41.65183 | 8.76327 | 195° | 60km/h | 13509m | -7.6m/s | 0°C | 0% | 0hPa | 0V | 00:00:00 | 00:00:00 | 00:00:00 | |
| RDZBGO | 2026-09-04 13:32:09 | 41.65306 | 8.76369 | 196° | 49km/h | 13584m | -7.5m/s | 0°C | 0% | 0hPa | 0V | 00:00:00 | 00:00:00 | 00:00:00 | |
| RDZBGO | 2026-09-04 13:31:48 | 41.65573 | 8.76452 | 191° | 42km/h | 13742m | -7.7m/s | 0°C | 0% | 0hPa | 0V | 00:00:00 | 00:00:00 | 00:00:00 | |
| RDZBGO | 2026-09-04 13:31:28 | 41.65792 | 8.76360 | 153° | 55km/h | 13896m | -7.5m/s | 0°C | 0% | 0hPa | 0V | 00:00:00 | 00:00:00 | 00:00:00 | |
| RDZBGO | 2026-09-04 13:31:07 | 41.66090 | 8.76233 | 176° | 49km/h | 14058m | -7.7m/s | 0°C | 0% | 0hPa | 0V | 00:00:00 | 00:00:00 | 00:00:00 | |
| RDZBGO | 2026-09-04 13:30:47 | 41.66349 | 8.76182 | 172° | 62km/h | 14213m | -7.7m/s | 0°C | 0% | 0hPa | 0V | 00:00:00 | 00:00:00 | 00:00:00 | |
| RDZBGO | 2026-09-04 13:30:26 | 41.66625 | 8.76161 | 180° | 35km/h | 14376m | -7.9m/s | 0°C | 0% | 0hPa | 0V | 00:00:00 | 00:00:00 | 00:00:00 | |
| RDZ2B | 2026-09-04 13:30:07 | 41.66767 | 8.76147 | 161° | 24km/h | 14526m | -8.2m/s | 0°C | 0% | 0hPa | 0V | 00:00:00 | 00:00:00 | 00:00:00 | |
| IW2NTF | 2026-09-04 13:30:05 | 41.66822 | 8.76127 | 163° | 26km/h | 14590m | -8m/s | 0°C | 0% | 0hPa | 0V | 00:00:00 | 00:00:00 | 00:00:00 | |
| RDZBGO | 2026-09-04 13:30:05 | 41.66780 | 8.76142 | 166° | 29km/h | 14542m | -7.8m/s | 0°C | 0% | 0hPa | 0V | 00:00:00 | 00:00:00 | 00:00:00 | |
| RDZBGO | 2026-09-04 13:29:44 | 41.66940 | 8.76098 | 173° | 40km/h | 14712m | -8.0m/s | 0°C | 0% | 0hPa | 0V | 00:00:00 | 00:00:00 | 00:00:00 | |
| RDZBGO | 2026-09-04 13:29:23 | 41.67183 | 8.76073 | 177° | 38km/h | 14884m | -8.2m/s | 0°C | 0% | 0hPa | 0V | 00:00:00 | 00:00:00 | 00:00:00 | |
| RDZ2B | 2026-09-04 13:29:18 | 41.67240 | 8.76075 | 188° | 42km/h | 14934m | -8.4m/s | 0°C | 0% | 0hPa | 0V | 00:00:00 | 00:00:00 | 00:00:00 | |
| RDZBGO | 2026-09-04 13:29:03 | 41.67355 | 8.76085 | 175° | 24km/h | 15051m | -8.5m/s | 0°C | 0% | 0hPa | 0V | 00:00:00 | 00:00:00 | 00:00:00 | |
| RDZ2B | 2026-09-04 13:28:49 | 41.67429 | 8.76079 | 151° | 16km/h | 15170m | -8.7m/s | 0°C | 0% | 0hPa | 0V | 00:00:00 | 00:00:00 | 00:00:00 | |
| RDZBGO | 2026-09-04 13:28:42 | 41.67451 | 8.76059 | 153° | 15km/h | 15230m | -8.6m/s | 0°C | 0% | 0hPa | 0V | 00:00:00 | 00:00:00 | 00:00:00 | |
| RDZ2B | 2026-09-04 13:28:28 | 41.67487 | 8.76061 | 211° | 15km/h | 15352m | -9.0m/s | 0°C | 0% | 0hPa | 0V | 00:00:00 | 00:00:00 | 00:00:00 | |
| RDZBGO | 2026-09-04 13:28:21 | 41.67506 | 8.76076 | 214° | 13km/h | 15414m | -8.9m/s | 0°C | 0% | 0hPa | 0V | 00:00:00 | 00:00:00 | 00:00:00 | |
| RDZ2B | 2026-09-04 13:28:06 | 41.67543 | 8.76084 | 175° | 9km/h | 15548m | -9.0m/s | 0°C | 0% | 0hPa | 0V | 00:00:00 | 00:00:00 | 00:00:00 | |
| RDZBGO | 2026-09-04 13:28:01 | 41.67552 | 8.76075 | 137° | 7km/h | 15592m | -8.9m/s | 0°C | 0% | 0hPa | 0V | 00:00:00 | 00:00:00 | 00:00:00 | |
| RDZ2B | 2026-09-04 13:27:45 | 41.67610 | 8.76066 | 163° | 20km/h | 15736m | -9.2m/s | 0°C | 0% | 0hPa | 0V | 00:00:00 | 00:00:00 | 00:00:00 | |
| RDZBGO | 2026-09-04 13:27:40 | 41.67638 | 8.76048 | 152° | 26km/h | 15781m | -8.9m/s | 0°C | 0% | 0hPa | 0V | 00:00:00 | 00:00:00 | 00:00:00 | |
| RDZ2B | 2026-09-04 13:27:24 | 41.67678 | 8.76006 | 96° | 15km/h | 15928m | -9.1m/s | 0°C | 0% | 0hPa | 0V | 00:00:00 | 00:00:00 | 00:00:00 | |
| RDZBGO | 2026-09-04 13:27:20 | 41.67675 | 8.75979 | 74° | 16km/h | 15973m | -9.2m/s | 0°C | 0% | 0hPa | 0V | 00:00:00 | 00:00:00 | 00:00:00 | |
| IW2NTF | 2026-09-04 13:27:10 | 41.67668 | 8.75912 | 95° | 22km/h | 16075m | -9.6m/s | 0°C | 0% | 0hPa | 0V | 00:00:00 | 00:00:00 | 00:00:00 | |
| RDZ2B | 2026-09-04 13:27:03 | 41.67665 | 8.75888 | 75° | 15km/h | 16123m | -9.6m/s | 0°C | 0% | 0hPa | 0V | 00:00:00 | 00:00:00 | 00:00:00 | |
| RDZBGO | 2026-09-04 13:26:58 | 41.67663 | 8.75878 | 34° | 4km/h | 16170m | -9.6m/s | 0°C | 0% | 0hPa | 0V | 00:00:00 | 00:00:00 | 00:00:00 | |
| IW2NTF | 2026-09-04 13:26:57 | 41.67661 | 8.75888 | 256° | 11km/h | 16226m | -9.5m/s | 0°C | 0% | 0hPa | 0V | 00:00:00 | 00:00:00 | 00:00:00 | |
| IW2NTF | 2026-09-04 13:26:43 | 41.67669 | 8.75946 | 317° | 9km/h | 16360m | -10m/s | 0°C | 0% | 0hPa | 0V | 00:00:00 | 00:00:00 | 00:00:00 | |
| RDZ2B | 2026-09-04 13:26:42 | 41.67669 | 8.75931 | 248° | 13km/h | 16321m | -9.4m/s | 0°C | 0% | 0hPa | 0V | 00:00:00 | 00:00:00 | 00:00:00 | |
| RDZBGO | 2026-09-04 13:26:38 | 41.67669 | 8.75946 | 319° | 11km/h | 16361m | -10.0m/s | 0°C | 0% | 0hPa | 0V | 00:00:00 | 00:00:00 | 00:00:00 | |
| IW2NTF | 2026-09-04 13:26:30 | 41.67654 | 8.75879 | 99° | 29km/h | 16476m | -9.6m/s | 0°C | 0% | 0hPa | 0V | 00:00:00 | 00:00:00 | 00:00:00 | |
| RDZ2B | 2026-09-04 13:26:22 | 41.67664 | 8.75834 | 118° | 37km/h | 16515m | -9.8m/s | 0°C | 0% | 0hPa | 0V | 00:00:00 | 00:00:00 | 00:00:00 | |
| IW2NTF | 2026-09-04 13:26:17 | 41.67730 | 8.75737 | 141° | 37km/h | 16611m | -9.3m/s | 0°C | 0% | 0hPa | 0V | 00:00:00 | 00:00:00 | 00:00:00 | |
| RDZ2B | 2026-09-04 13:26:01 | 41.67810 | 8.75634 | 141° | 37km/h | 16718m | -9.7m/s | 0°C | 0% | 0hPa | 0V | 00:00:00 | 00:00:00 | 00:00:00 | |
| RDZBGO | 2026-09-04 13:25:57 | 41.67837 | 8.75614 | 150° | 29km/h | 16756m | -9.6m/s | 0°C | 0% | 0hPa | 0V | 00:00:00 | 00:00:00 | 00:00:00 | |
| RDZ2B | 2026-09-04 13:25:41 | 41.67949 | 8.75517 | 150° | 22km/h | 16909m | -9.7m/s | 0°C | 0% | 0hPa | 0V | 00:00:00 | 00:00:00 | 00:00:00 | |
| RDZBGO | 2026-09-04 13:25:37 | 41.67964 | 8.75492 | 120° | 29km/h | 16947m | -9.4m/s | 0°C | 0% | 0hPa | 0V | 00:00:00 | 00:00:00 | 00:00:00 | |
| RDZ2B | 2026-09-04 13:25:20 | 41.68049 | 8.75423 | 165° | 29km/h | 17111m | -10.1m/s | 0°C | 0% | 0hPa | 0V | 00:00:00 | 00:00:00 | 00:00:00 | |
| RDZBGO | 2026-09-04 13:25:17 | 41.68071 | 8.75414 | 157° | 31km/h | 17141m | -9.6m/s | 0°C | 0% | 0hPa | 0V | 00:00:00 | 00:00:00 | 00:00:00 | |
| IW2NTF | 2026-09-04 13:25:15 | 41.68097 | 8.75397 | 150° | 24km/h | 17180m | -9.9m/s | 0°C | 0% | 0hPa | 0V | 00:00:00 | 00:00:00 | 00:00:00 | |
| IW2NTF | 2026-09-04 13:25:04 | 41.68148 | 8.75285 | 102° | 22km/h | 17326m | -10m/s | 0°C | 0% | 0hPa | 0V | 00:00:00 | 00:00:00 | 00:00:00 | |
| RDZ2B | 2026-09-04 13:25:00 | 41.68144 | 8.75297 | 130° | 18km/h | 17307m | -9.9m/s | 0°C | 0% | 0hPa | 0V | 00:00:00 | 00:00:00 | 00:00:00 | |
| RDZBGO | 2026-09-04 13:24:57 | 41.68149 | 8.75278 | 102° | 22km/h | 17336m | -10.0m/s | 0°C | 0% | 0hPa | 0V | 00:00:00 | 00:00:00 | 00:00:00 | |
| IW2NTF | 2026-09-04 13:24:53 | 41.68162 | 8.75221 | 183° | 11km/h | 17427m | -9.8m/s | 0°C | 0% | 0hPa | 0V | 00:00:00 | 00:00:00 | 00:00:00 | |
| RDZ2B | 2026-09-04 13:24:39 | 41.68203 | 8.75232 | 183° | 24km/h | 17519m | -10.2m/s | 0°C | 0% | 0hPa | 0V | 00:00:00 | 00:00:00 | 00:00:00 | |
| IW2NTF | 2026-09-04 13:24:38 | 41.68230 | 8.75230 | 179° | 29km/h | 17560m | -10.6m/s | 0°C | 0% | 0hPa | 0V | 00:00:00 | 00:00:00 | 00:00:00 | |
| RDZBGO | 2026-09-04 13:24:36 | 41.68222 | 8.75230 | 176° | 29km/h | 17550m | -10.5m/s | 0°C | 0% | 0hPa | 0V | 00:00:00 | 00:00:00 | 00:00:00 | |
| RDZ2B | 2026-09-04 13:24:18 | 41.68287 | 8.75202 | 136° | 11km/h | 17740m | -10.6m/s | 0°C | 0% | 0hPa | 0V | 00:00:00 | 00:00:00 | 00:00:00 | |
| RDZBGO | 2026-09-04 13:24:15 | 41.68291 | 8.75193 | 100° | 9km/h | 17772m | -10.8m/s | 0°C | 0% | 0hPa | 0V | 00:00:00 | 00:00:00 | 00:00:00 | |
| IW2NTF | 2026-09-04 13:24:14 | 41.68293 | 8.75178 | 161° | 13km/h | 17846m | -10.3m/s | 0°C | 0% | 0hPa | 0V | 00:00:00 | 00:00:00 | 00:00:00 | |
| RDZ2B | 2026-09-04 13:23:57 | 41.68319 | 8.75135 | 120° | 15km/h | 17965m | -11.1m/s | 0°C | 0% | 0hPa | 0V | 00:00:00 | 00:00:00 | 00:00:00 | |
| RDZBGO | 2026-09-04 13:23:54 | 41.68323 | 8.75128 | 142° | 4km/h | 17998m | -11.1m/s | 0°C | 0% | 0hPa | 0V | 00:00:00 | 00:00:00 | 00:00:00 | |
| RDZ2B | 2026-09-04 13:23:37 | 41.68356 | 8.75085 | 130° | 7km/h | 18186m | -11.5m/s | 0°C | 0% | 0hPa | 0V | 00:00:00 | 00:00:00 | 00:00:00 | |
| RDZBGO | 2026-09-04 13:23:34 | 41.68361 | 8.75074 | 112° | 20km/h | 18221m | -11.2m/s | 0°C | 0% | 0hPa | 0V | 00:00:00 | 00:00:00 | 00:00:00 | |
| RDZ2B | 2026-09-04 13:23:16 | 41.68431 | 8.74981 | 161° | 16km/h | 18427m | -11.2m/s | 0°C | 0% | 0hPa | 0V | 00:00:00 | 00:00:00 | 00:00:00 | |
| RDZBGO | 2026-09-04 13:23:08 | 41.68459 | 8.74995 | 217° | 20km/h | 18518m | -11.4m/s | 0°C | 0% | 0hPa | 0V | 00:00:00 | 00:00:00 | 00:00:00 | |
| RDZ2B | 2026-09-04 13:22:53 | 41.68508 | 8.75064 | 168° | 18km/h | 18694m | -12.0m/s | 0°C | 0% | 0hPa | 0V | 00:00:00 | 00:00:00 | 00:00:00 | |
| RDZBGO | 2026-09-04 13:22:20 | 41.68658 | 8.75096 | 209° | 35km/h | 19085m | -12.3m/s | 0°C | 0% | 0hPa | 0V | 00:00:00 | 00:00:00 | 00:00:00 | |
| RDZ2B | 2026-09-04 13:22:08 | 41.68719 | 8.75132 | 181° | 16km/h | 19234m | -11.8m/s | 0°C | 0% | 0hPa | 0V | 00:00:00 | 00:00:00 | 00:00:00 | |
| RDZBGO | 2026-09-04 13:21:58 | 41.68763 | 8.75128 | 204° | 26km/h | 19354m | -12.0m/s | 0°C | 0% | 0hPa | 0V | 00:00:00 | 00:00:00 | 00:00:00 | |
| RDZBGO | 2026-09-04 13:21:38 | 41.68794 | 8.75138 | 316° | 22km/h | 19606m | -12.5m/s | 0°C | 0% | 0hPa | 0V | 00:00:00 | 00:00:00 | 00:00:00 | |
| IW2NTF | 2026-09-04 13:21:28 | 41.68774 | 8.75115 | 179° | 26km/h | 19809m | -12.6m/s | 0°C | 0% | 0hPa | 0V | 00:00:00 | 00:00:00 | 00:00:00 | |
| RDZ2B | 2026-09-04 13:21:19 | 41.68796 | 8.75117 | 187° | 27km/h | 19849m | -12.8m/s | 0°C | 0% | 0hPa | 0V | 00:00:00 | 00:00:00 | 00:00:00 | |
| RDZBGO | 2026-09-04 13:21:12 | 41.68835 | 8.75119 | 180° | 18km/h | 19940m | -13.3m/s | 0°C | 0% | 0hPa | 0V | 00:00:00 | 00:00:00 | 00:00:00 | |
| IW2NTF | 2026-09-04 13:20:56 | 41.68855 | 8.75196 | 150° | 20km/h | 20234m | -14m/s | 0°C | 0% | 0hPa | 0V | 00:00:00 | 00:00:00 | 00:00:00 | |
| RDZ2B | 2026-09-04 13:20:51 | 41.68850 | 8.75199 | 160° | 18km/h | 20221m | -12.8m/s | 0°C | 0% | 0hPa | 0V | 00:00:00 | 00:00:00 | 00:00:00 | |
| IW2NTF | 2026-09-04 13:20:31 | 41.68905 | 8.75231 | 248° | 15km/h | 20508m | -13.7m/s | 0°C | 0% | 0hPa | 0V | 00:00:00 | 00:00:00 | 00:00:00 | |
| RDZ2B | 2026-09-04 13:20:31 | 41.68903 | 8.75226 | 232° | 18km/h | 20494m | -14.0m/s | 0°C | 0% | 0hPa | 0V | 00:00:00 | 00:00:00 | 00:00:00 | |
| RDZBGO | 2026-09-04 13:20:29 | 41.68906 | 8.75236 | 278° | 16km/h | 20522m | -13.3m/s | 0°C | 0% | 0hPa | 0V | 00:00:00 | 00:00:00 | 00:00:00 | |
| RDZ2B | 2026-09-04 13:20:10 | 41.68868 | 8.75176 | 120° | 18km/h | 20783m | -14.1m/s | 0°C | 0% | 0hPa | 0V | 00:00:00 | 00:00:00 | 00:00:00 | |
| IW2NTF | 2026-09-04 13:20:07 | 41.68864 | 8.75142 | 35° | 15km/h | 20907m | -13.7m/s | 0°C | 0% | 0hPa | 0V | 00:00:00 | 00:00:00 | 00:00:00 | |
| RDZBGO | 2026-09-04 13:20:07 | 41.68875 | 8.75159 | 116° | 22km/h | 20825m | -13.9m/s | 0°C | 0% | 0hPa | 0V | 00:00:00 | 00:00:00 | 00:00:00 | |
| RDZBGO | 2026-09-04 13:19:46 | 41.68840 | 8.75108 | 115° | 15km/h | 21122m | -13.7m/s | 0°C | 0% | 0hPa | 0V | 00:00:00 | 00:00:00 | 00:00:00 | |
| RDZ2B | 2026-09-04 13:19:41 | 41.68838 | 8.75092 | 64° | 11km/h | 21194m | -13.8m/s | 0°C | 0% | 0hPa | 0V | 00:00:00 | 00:00:00 | 00:00:00 | |
| IW2NTF | 2026-09-04 13:19:36 | 41.68811 | 8.75090 | 325° | 18km/h | 21351m | -14.1m/s | 0°C | 0% | 0hPa | 0V | 00:00:00 | 00:00:00 | 00:00:00 | |
| RDZBGO | 2026-09-04 13:19:24 | 41.68780 | 8.75095 | 353° | 29km/h | 21437m | -14.5m/s | 0°C | 0% | 0hPa | 0V | 00:00:00 | 00:00:00 | 00:00:00 | |
| IW2NTF | 2026-09-04 13:19:20 | 41.68741 | 8.75064 | 98° | 18km/h | 21569m | -14m/s | 0°C | 0% | 0hPa | 0V | 00:00:00 | 00:00:00 | 00:00:00 | |
| RDZ2B | 2026-09-04 13:19:14 | 41.68742 | 8.75058 | 103° | 18km/h | 21584m | -13.7m/s | 0°C | 0% | 0hPa | 0V | 00:00:00 | 00:00:00 | 00:00:00 | |
| IW2NTF | 2026-09-04 13:19:09 | 41.68713 | 8.74995 | 343° | 18km/h | 21749m | -14.8m/s | 0°C | 0% | 0hPa | 0V | 00:00:00 | 00:00:00 | 00:00:00 | |
| RDZBGO | 2026-09-04 13:19:03 | 41.68712 | 8.74995 | 344° | 18km/h | 21749m | -14.8m/s | 0°C | 0% | 0hPa | 0V | 00:00:00 | 00:00:00 | 00:00:00 | |
| IW2NTF | 2026-09-04 13:18:53 | 41.68745 | 8.75044 | 176° | 22km/h | 21960m | -15.5m/s | 0°C | 0% | 0hPa | 0V | 00:00:00 | 00:00:00 | 00:00:00 | |
| RDZ2B | 2026-09-04 13:18:52 | 41.68724 | 8.75044 | 193° | 29km/h | 21915m | -14.9m/s | 0°C | 0% | 0hPa | 0V | 00:00:00 | 00:00:00 | 00:00:00 | |
| RDZBGO | 2026-09-04 13:18:43 | 41.68767 | 8.75034 | 160° | 13km/h | 22053m | -15.6m/s | 0°C | 0% | 0hPa | 0V | 00:00:00 | 00:00:00 | 00:00:00 | |
| RDZ2B | 2026-09-04 13:18:32 | 41.68818 | 8.75098 | 244° | 31km/h | 22226m | -16.1m/s | 0°C | 0% | 0hPa | 0V | 00:00:00 | 00:00:00 | 00:00:00 | |
| IW2NTF | 2026-09-04 13:18:29 | 41.68810 | 8.75191 | 295° | 37km/h | 22369m | -15.8m/s | 0°C | 0% | 0hPa | 0V | 00:00:00 | 00:00:00 | 00:00:00 | |
| RDZBGO | 2026-09-04 13:18:21 | 41.68803 | 8.75214 | 289° | 37km/h | 22401m | -16.0m/s | 0°C | 0% | 0hPa | 0V | 00:00:00 | 00:00:00 | 00:00:00 | |
| IW2NTF | 2026-09-04 13:18:13 | 41.68805 | 8.75244 | 63° | 24km/h | 22629m | -15.8m/s | 0°C | 0% | 0hPa | 0V | 00:00:00 | 00:00:00 | 00:00:00 | |
| RDZ2B | 2026-09-04 13:18:12 | 41.68809 | 8.75273 | 162° | 11km/h | 22549m | -16.4m/s | 0°C | 0% | 0hPa | 0V | 00:00:00 | 00:00:00 | 00:00:00 | |
| RDZBGO | 2026-09-04 13:18:01 | 41.68785 | 8.75193 | 46° | 29km/h | 22727m | -16.5m/s | 0°C | 0% | 0hPa | 0V | 00:00:00 | 00:00:00 | 00:00:00 | |
| RDZ2B | 2026-09-04 13:17:51 | 41.68724 | 8.75178 | 316° | 20km/h | 22897m | -17.6m/s | 0°C | 0% | 0hPa | 0V | 00:00:00 | 00:00:00 | 00:00:00 | |
| IW2NTF | 2026-09-04 13:17:42 | 41.68756 | 8.75162 | 36° | 7km/h | 23155m | -18.2m/s | 0°C | 0% | 0hPa | 0V | 00:00:00 | 00:00:00 | 00:00:00 | |
| RDZBGO | 2026-09-04 13:17:40 | 41.68753 | 8.75181 | 136° | 18km/h | 23085m | -17.1m/s | 0°C | 0% | 0hPa | 0V | 00:00:00 | 00:00:00 | 00:00:00 | |
| RDZ2B | 2026-09-04 13:17:31 | 41.68747 | 8.75201 | 264° | 37km/h | 23240m | -15.6m/s | 0°C | 0% | 0hPa | 0V | 00:00:00 | 00:00:00 | 00:00:00 | |
| IW2NTF | 2026-09-04 13:17:23 | 41.68758 | 8.75331 | 267° | 22km/h | 23445m | -18m/s | 0°C | 0% | 0hPa | 0V | 00:00:00 | 00:00:00 | 00:00:00 | |
| RDZBGO | 2026-09-04 13:17:18 | 41.68760 | 8.75338 | 252° | 20km/h | 23463m | -16.6m/s | 0°C | 0% | 0hPa | 0V | 00:00:00 | 00:00:00 | 00:00:00 | |
| IW2NTF | 2026-09-04 13:17:13 | 41.68760 | 8.75325 | 2° | 33km/h | 23623m | -17.5m/s | 0°C | 0% | 0hPa | 0V | 00:00:00 | 00:00:00 | 00:00:00 | |
| RDZ2B | 2026-09-04 13:17:11 | 41.68770 | 8.75330 | 66° | 16km/h | 23588m | -19.0m/s | 0°C | 0% | 0hPa | 0V | 00:00:00 | 00:00:00 | 00:00:00 | |
| RDZBGO | 2026-09-04 13:16:58 | 41.68749 | 8.75373 | 195° | 18km/h | 23821m | -18.1m/s | 0°C | 0% | 0hPa | 0V | 00:00:00 | 00:00:00 | 00:00:00 | |
| RDZ2B | 2026-09-04 13:16:49 | 41.68765 | 8.75406 | 316° | 26km/h | 23986m | -17.3m/s | 0°C | 0% | 0hPa | 0V | 00:00:00 | 00:00:00 | 00:00:00 | |
| IW2NTF | 2026-09-04 13:16:48 | 41.68742 | 8.75447 | 164° | 16km/h | 24119m | -18m/s | 0°C | 0% | 0hPa | 0V | 00:00:00 | 00:00:00 | 00:00:00 | |
| IW2NTF | 2026-09-04 13:16:38 | 41.68724 | 8.75413 | 326° | 20km/h | 24284m | -18.6m/s | 0°C | 0% | 0hPa | 0V | 00:00:00 | 00:00:00 | 00:00:00 | |
| RDZ2B | 2026-09-04 13:16:28 | 41.68723 | 8.75449 | 230° | 22km/h | 24378m | -18.7m/s | 0°C | 0% | 0hPa | 0V | 00:00:00 | 00:00:00 | 00:00:00 | |
| RDZBGO | 2026-09-04 13:16:23 | 41.68738 | 8.75461 | 151° | 7km/h | 24472m | -19.2m/s | 0°C | 0% | 0hPa | 0V | 00:00:00 | 00:00:00 | 00:00:00 | |
| IW2NTF | 2026-09-04 13:16:18 | 41.68703 | 8.75490 | 269° | 29km/h | 24646m | -18.7m/s | 0°C | 0% | 0hPa | 0V | 00:00:00 | 00:00:00 | 00:00:00 | |
| IW2NTF | 2026-09-04 13:16:08 | 41.68690 | 8.75505 | 297° | 27km/h | 24823m | -19.1m/s | 0°C | 0% | 0hPa | 0V | 00:00:00 | 00:00:00 | 00:00:00 | |
| RDZ2B | 2026-09-04 13:16:05 | 41.68690 | 8.75505 | 299° | 27km/h | 24823m | -19.1m/s | 0°C | 0% | 0hPa | 0V | 00:00:00 | 00:00:00 | 00:00:00 | |
| IW2NTF | 2026-09-04 13:15:58 | 41.68654 | 8.75523 | 348° | 22km/h | 25077m | -19.6m/s | 0°C | 0% | 0hPa | 0V | 00:00:00 | 00:00:00 | 00:00:00 | |
| RDZ2B | 2026-09-04 13:15:44 | 41.68647 | 8.75562 | 183° | 13km/h | 25238m | -19.4m/s | 0°C | 0% | 0hPa | 0V | 00:00:00 | 00:00:00 | 00:00:00 | |
| RDZBGO | 2026-09-04 13:15:43 | 41.68649 | 8.75562 | 193° | 4km/h | 25257m | -19.6m/s | 0°C | 0% | 0hPa | 0V | 00:00:00 | 00:00:00 | 00:00:00 | |
| IW2NTF | 2026-09-04 13:15:30 | 41.68647 | 8.75585 | 82° | 13km/h | 25569m | -20.1m/s | 0°C | 0% | 0hPa | 0V | 00:00:00 | 00:00:00 | 00:00:00 | |
| RDZ2B | 2026-09-04 13:15:23 | 41.68628 | 8.75573 | 327° | 27km/h | 25672m | -21.0m/s | 0°C | 0% | 0hPa | 0V | 00:00:00 | 00:00:00 | 00:00:00 | |
| IW2NTF | 2026-09-04 13:15:13 | 41.68636 | 8.75647 | 275° | 33km/h | 25920m | -20.3m/s | 0°C | 0% | 0hPa | 0V | 00:00:00 | 00:00:00 | 00:00:00 | |
| IW2NTF | 2026-09-04 13:15:04 | 41.68647 | 8.75709 | 65° | 22km/h | 26201m | -21.1m/s | 0°C | 0% | 0hPa | 0V | 00:00:00 | 00:00:00 | 00:00:00 | |
| RDZ2B | 2026-09-04 13:15:01 | 41.68647 | 8.75731 | 151° | 22km/h | 26138m | -21.6m/s | 0°C | 0% | 0hPa | 0V | 00:00:00 | 00:00:00 | 00:00:00 | |
| IW2NTF | 2026-09-04 13:14:48 | 41.68617 | 8.75762 | 245° | 24km/h | 26502m | -21.8m/s | 0°C | 0% | 0hPa | 0V | 00:00:00 | 00:00:00 | 00:00:00 | |
| RDZ2B | 2026-09-04 13:14:41 | 41.68632 | 8.75776 | 192° | 22km/h | 26569m | -22.8m/s | 0°C | 0% | 0hPa | 0V | 00:00:00 | 00:00:00 | 00:00:00 | |
| IW2NTF | 2026-09-04 13:14:36 | 41.68630 | 8.75780 | 228° | 13km/h | 26808m | -20.6m/s | 0°C | 0% | 0hPa | 0V | 00:00:00 | 00:00:00 | 00:00:00 | |
| IW2NTF | 2026-09-04 13:14:24 | 41.68649 | 8.75802 | 247° | 38km/h | 27062m | -21.8m/s | 0°C | 0% | 0hPa | 0V | 00:00:00 | 00:00:00 | 00:00:00 | |
| RDZ2B | 2026-09-04 13:14:18 | 41.68649 | 8.75802 | 249° | 38km/h | 27063m | -21.8m/s | 0°C | 0% | 0hPa | 0V | 00:00:00 | 00:00:00 | 00:00:00 | |
| RDZ2B | 2026-09-04 13:13:56 | 41.68668 | 8.75882 | 336° | 31km/h | 27545m | -23.6m/s | 0°C | 0% | 0hPa | 0V | 00:00:00 | 00:00:00 | 00:00:00 | |
| RDZ2B | 2026-09-04 13:13:36 | 41.68642 | 8.75968 | 199° | 37km/h | 28006m | -23.7m/s | 0°C | 0% | 0hPa | 0V | 00:00:00 | 00:00:00 | 00:00:00 | |
| RDZ2B | 2026-09-04 13:13:16 | 41.68586 | 8.76109 | 298° | 22km/h | 28496m | -26.2m/s | 0°C | 0% | 0hPa | 0V | 00:00:00 | 00:00:00 | 00:00:00 | |
| RDZBGO | 2026-09-04 13:13:12 | 41.68580 | 8.76108 | 36° | 22km/h | 28597m | -26.2m/s | 0°C | 0% | 0hPa | 0V | 00:00:00 | 00:00:00 | 00:00:00 | |
| RDZ2B | 2026-09-04 13:12:54 | 41.68528 | 8.76152 | 231° | 22km/h | 29065m | -27.0m/s | 0°C | 0% | 0hPa | 0V | 00:00:00 | 00:00:00 | 00:00:00 | |
| RDZ2B | 2026-09-04 13:12:32 | 41.68513 | 8.76247 | 222° | 38km/h | 29662m | -26.8m/s | 0°C | 0% | 0hPa | 0V | 00:00:00 | 00:00:00 | 00:00:00 | |
| RDZ2B | 2026-09-04 13:12:09 | 41.68518 | 8.76284 | 349° | 11km/h | 30322m | -30.2m/s | 0°C | 0% | 0hPa | 0V | 00:00:00 | 00:00:00 | 00:00:00 | |
| RDZ2B | 2026-09-04 13:11:47 | 41.68545 | 8.76406 | 183° | 40km/h | 30987m | -30.8m/s | 0°C | 0% | 0hPa | 0V | 00:00:00 | 00:00:00 | 00:00:00 | |
| RDZ2B | 2026-09-04 13:11:06 | 41.68588 | 8.76614 | 348° | 33km/h | 32292m | -33.8m/s | 0°C | 0% | 0hPa | 0V | 00:00:00 | 00:00:00 | 00:00:00 | |
| IW2NTF | 2026-09-04 13:11:05 | 41.68567 | 8.76672 | 320° | 37km/h | 32496m | -34.7m/s | 0°C | 0% | 0hPa | 0V | 00:00:00 | 00:00:00 | 00:00:00 | |
| RDZ2B | 2026-09-04 13:10:36 | 41.68456 | 8.76853 | 336° | 37km/h | 33368m | -36.5m/s | 0°C | 0% | 0hPa | 0V | 00:00:00 | 00:00:00 | 00:00:00 | |
| RDZ2B | 2026-09-04 13:10:16 | 41.68356 | 8.76984 | 322° | 37km/h | 34137m | -37.6m/s | 0°C | 0% | 0hPa | 0V | 00:00:00 | 00:00:00 | 00:00:00 | |
| RDZ2B | 2026-09-04 13:09:55 | 41.68279 | 8.77188 | 303° | 58km/h | 35082m | -22.3m/s | 0°C | 0% | 0hPa | 0V | 00:00:00 | 00:00:00 | 00:00:00 | |
| RDZBGO | 2026-09-04 13:09:50 | 41.68269 | 8.77248 | 239° | 38km/h | 35120m | 7.2m/s | 0°C | 0% | 0hPa | 0V | 00:00:00 | 00:00:00 | 00:00:00 | |
| RDZ2B | 2026-09-04 13:09:35 | 41.68252 | 8.77371 | 349° | 38km/h | 35047m | 7.4m/s | 0°C | 0% | 0hPa | 0V | 00:00:00 | 00:00:00 | 00:00:00 | |
| RDZ2B | 2026-09-04 13:09:13 | 41.68194 | 8.77586 | 296° | 33km/h | 34928m | 3.8m/s | 0°C | 0% | 0hPa | 0V | 00:00:00 | 00:00:00 | 00:00:00 | |
| RDZBGO | 2026-09-04 13:09:07 | 41.68173 | 8.77604 | 329° | 29km/h | 34898m | 5.4m/s | 0°C | 0% | 0hPa | 0V | 00:00:00 | 00:00:00 | 00:00:00 | |
| RDZ2B | 2026-09-04 13:08:53 | 41.68125 | 8.77722 | 236° | 51km/h | 34827m | 4.9m/s | 0°C | 0% | 0hPa | 0V | 00:00:00 | 00:00:00 | 00:00:00 | |
| RDZBGO | 2026-09-04 13:08:36 | 41.68077 | 8.77838 | 280° | 60km/h | 34728m | -0.4m/s | 0°C | 0% | 0hPa | 0V | 00:00:00 | 00:00:00 | 00:00:00 | |
| RDZ2B | 2026-09-04 13:08:32 | 41.68078 | 8.77859 | 95° | 29km/h | 34699m | 2.9m/s | 0°C | 0% | 0hPa | 0V | 00:00:00 | 00:00:00 | 00:00:00 | |
| IW2NTF | 2026-09-04 13:08:17 | 41.68025 | 8.78072 | 255° | 24km/h | 34581m | -0.3m/s | 0°C | 0% | 0hPa | 0V | 00:00:00 | 00:00:00 | 00:00:00 | |
| RDZBGO | 2026-09-04 13:08:15 | 41.68010 | 8.78029 | 290° | 47km/h | 34609m | 6.1m/s | 0°C | 0% | 0hPa | 0V | 00:00:00 | 00:00:00 | 00:00:00 | |
| RDZ2B | 2026-09-04 13:08:07 | 41.67985 | 8.78109 | 331° | 86km/h | 34553m | 3.1m/s | 0°C | 0% | 0hPa | 0V | 00:00:00 | 00:00:00 | 00:00:00 | |
| IW2NTF | 2026-09-04 13:08:02 | 41.67924 | 8.78266 | 307° | 88km/h | 34493m | -3.6m/s | 0°C | 0% | 0hPa | 0V | 00:00:00 | 00:00:00 | 00:00:00 | |
| RDZBGO | 2026-09-04 13:07:51 | 41.67928 | 8.78343 | 212° | 18km/h | 34461m | -0.8m/s | 0°C | 0% | 0hPa | 0V | 00:00:00 | 00:00:00 | 00:00:00 | |
| RDZ2B | 2026-09-04 13:07:43 | 41.67882 | 8.78459 | 229° | 26km/h | 34410m | 15.8m/s | 0°C | 0% | 0hPa | 0V | 00:00:00 | 00:00:00 | 00:00:00 | |
| RDZBGO | 2026-09-04 13:07:27 | 41.67853 | 8.78592 | 292° | 89km/h | 34308m | 7.6m/s | 0°C | 0% | 0hPa | 0V | 00:00:00 | 00:00:00 | 00:00:00 | |
| RDZ2B | 2026-09-04 13:07:22 | 41.67840 | 8.78645 | 94° | 33km/h | 34276m | 10.0m/s | 0°C | 0% | 0hPa | 0V | 00:00:00 | 00:00:00 | 00:00:00 | |
| RDZ2B | 2026-09-04 13:07:01 | 41.67791 | 8.78746 | 60° | 20km/h | 34145m | 9.1m/s | 0°C | 0% | 0hPa | 0V | 00:00:00 | 00:00:00 | 00:00:00 | |
| RDZBGO | 2026-09-04 13:06:56 | 41.67802 | 8.78727 | 256° | 18km/h | 34115m | 7.9m/s | 0°C | 0% | 0hPa | 0V | 00:00:00 | 00:00:00 | 00:00:00 | |
| IW2NTF | 2026-09-04 13:06:46 | 41.67791 | 8.78763 | 262° | 26km/h | 34032m | 6.4m/s | 0°C | 0% | 0hPa | 0V | 00:00:00 | 00:00:00 | 00:00:00 | |
| RDZ2B | 2026-09-04 13:06:40 | 41.67788 | 8.78793 | 307° | 29km/h | 34014m | 5.9m/s | 0°C | 0% | 0hPa | 0V | 00:00:00 | 00:00:00 | 00:00:00 | |
| RDZBGO | 2026-09-04 13:06:34 | 41.67763 | 8.78779 | 197° | 7km/h | 33976m | 6.6m/s | 0°C | 0% | 0hPa | 0V | 00:00:00 | 00:00:00 | 00:00:00 | |
| RDZ2B | 2026-09-04 13:06:20 | 41.67727 | 8.78866 | 278° | 53km/h | 33888m | 5.5m/s | 0°C | 0% | 0hPa | 0V | 00:00:00 | 00:00:00 | 00:00:00 | |
| IW2NTF | 2026-09-04 13:06:11 | 41.67640 | 8.79010 | 347° | 58km/h | 33791m | 10m/s | 0°C | 0% | 0hPa | 0V | 00:00:00 | 00:00:00 | 00:00:00 | |
| RDZBGO | 2026-09-04 13:06:09 | 41.67669 | 8.78953 | 269° | 64km/h | 33817m | 5.3m/s | 0°C | 0% | 0hPa | 0V | 00:00:00 | 00:00:00 | 00:00:00 | |
| RDZ2B | 2026-09-04 13:05:59 | 41.67607 | 8.79051 | 253° | 66km/h | 33753m | 5.6m/s | 0°C | 0% | 0hPa | 0V | 00:00:00 | 00:00:00 | 00:00:00 | |
| IW2NTF | 2026-09-04 13:05:43 | 41.67460 | 8.79278 | 339° | 73km/h | 33624m | 9.6m/s | 0°C | 0% | 0hPa | 0V | 00:00:00 | 00:00:00 | 00:00:00 | |
| RDZ2B | 2026-09-04 13:05:34 | 41.67423 | 8.79273 | 23° | 15km/h | 33605m | 4.8m/s | 0°C | 0% | 0hPa | 0V | 00:00:00 | 00:00:00 | 00:00:00 | |
| IW2NTF | 2026-09-04 13:05:23 | 41.67327 | 8.79430 | 16° | 33km/h | 33501m | 14.4m/s | 0°C | 0% | 0hPa | 0V | 00:00:00 | 00:00:00 | 00:00:00 | |
| RDZBGO | 2026-09-04 13:05:22 | 41.67356 | 8.79382 | 282° | 77km/h | 33524m | 4.2m/s | 0°C | 0% | 0hPa | 0V | 00:00:00 | 00:00:00 | 00:00:00 | |
| RDZ2B | 2026-09-04 13:05:12 | 41.67290 | 8.79486 | 297° | 108km/h | 33465m | 2.5m/s | 0°C | 0% | 0hPa | 0V | 00:00:00 | 00:00:00 | 00:00:00 | |
| IW2NTF | 2026-09-04 13:04:52 | 41.67113 | 8.79757 | 301° | 58km/h | 33327m | 5m/s | 0°C | 0% | 0hPa | 0V | 00:00:00 | 00:00:00 | 00:00:00 | |
| RDZBGO | 2026-09-04 13:04:52 | 41.67132 | 8.79723 | 311° | 69km/h | 33339m | 6.1m/s | 0°C | 0% | 0hPa | 0V | 00:00:00 | 00:00:00 | 00:00:00 | |
| RDZ2B | 2026-09-04 13:04:51 | 41.67122 | 8.79740 | 308° | 66km/h | 33333m | 5.2m/s | 0°C | 0% | 0hPa | 0V | 00:00:00 | 00:00:00 | 00:00:00 | |
| IW2NTF | 2026-09-04 13:04:46 | 41.67064 | 8.79868 | 300° | 49km/h | 33265m | 6.1m/s | 0°C | 0% | 0hPa | 0V | 00:00:00 | 00:00:00 | 00:00:00 | |
| RDZBGO | 2026-09-04 13:04:32 | 41.67028 | 8.79973 | 56° | 13km/h | 33216m | 4.7m/s | 0°C | 0% | 0hPa | 0V | 00:00:00 | 00:00:00 | 00:00:00 | |
| IW2NTF | 2026-09-04 13:04:32 | 41.67004 | 8.80060 | 297° | 71km/h | 33181m | 0.4m/s | 0°C | 0% | 0hPa | 0V | 00:00:00 | 00:00:00 | 00:00:00 | |
| RDZ2B | 2026-09-04 13:04:30 | 41.67025 | 8.79977 | 291° | 27km/h | 33209m | 5.0m/s | 0°C | 0% | 0hPa | 0V | 00:00:00 | 00:00:00 | 00:00:00 | |
| RDZ2B | 2026-09-04 13:04:08 | 41.66956 | 8.80200 | 318° | 37km/h | 33073m | 10.3m/s | 0°C | 0% | 0hPa | 0V | 00:00:00 | 00:00:00 | 00:00:00 | |
| RDZBGO | 2026-09-04 13:04:04 | 41.66920 | 8.80262 | 282° | 47km/h | 33049m | 4.7m/s | 0°C | 0% | 0hPa | 0V | 00:00:00 | 00:00:00 | 00:00:00 | |
| IW2NTF | 2026-09-04 13:03:58 | 41.66893 | 8.80333 | 277° | 40km/h | 32985m | 5.9m/s | 0°C | 0% | 0hPa | 0V | 00:00:00 | 00:00:00 | 00:00:00 | |
| RDZ2B | 2026-09-04 13:03:47 | 41.66888 | 8.80364 | 346° | 40km/h | 32941m | 6.3m/s | 0°C | 0% | 0hPa | 0V | 00:00:00 | 00:00:00 | 00:00:00 | |
| RDZBGO | 2026-09-04 13:03:43 | 41.66863 | 8.80404 | 269° | 46km/h | 32917m | 7.1m/s | 0°C | 0% | 0hPa | 0V | 00:00:00 | 00:00:00 | 00:00:00 | |
| IW2NTF | 2026-09-04 13:03:38 | 41.66848 | 8.80442 | 346° | 46km/h | 32878m | 2.9m/s | 0°C | 0% | 0hPa | 0V | 00:00:00 | 00:00:00 | 00:00:00 | |
| RDZ2B | 2026-09-04 13:03:25 | 41.66786 | 8.80547 | 313° | 75km/h | 32813m | 5.4m/s | 0°C | 0% | 0hPa | 0V | 00:00:00 | 00:00:00 | 00:00:00 | |
| IW2NTF | 2026-09-04 13:03:22 | 41.66755 | 8.80644 | 318° | 64km/h | 32756m | 5m/s | 0°C | 0% | 0hPa | 0V | 00:00:00 | 00:00:00 | 00:00:00 | |
| RDZBGO | 2026-09-04 13:03:09 | 41.66746 | 8.80730 | 296° | 11km/h | 32714m | 5.0m/s | 0°C | 0% | 0hPa | 0V | 00:00:00 | 00:00:00 | 00:00:00 | |
| RDZ2B | 2026-09-04 13:03:05 | 41.66717 | 8.80769 | 308° | 62km/h | 32689m | 5.4m/s | 0°C | 0% | 0hPa | 0V | 00:00:00 | 00:00:00 | 00:00:00 | |
| IW2NTF | 2026-09-04 13:02:57 | 41.66693 | 8.80873 | 328° | 55km/h | 32630m | 5.3m/s | 0°C | 0% | 0hPa | 0V | 00:00:00 | 00:00:00 | 00:00:00 | |
| RDZ2B | 2026-09-04 13:02:46 | 41.66674 | 8.80967 | 339° | 60km/h | 32572m | 5.5m/s | 0°C | 0% | 0hPa | 0V | 00:00:00 | 00:00:00 | 00:00:00 | |
| RDZBGO | 2026-09-04 13:02:43 | 41.66654 | 8.80992 | 292° | 51km/h | 32565m | 4.2m/s | 0°C | 0% | 0hPa | 0V | 00:00:00 | 00:00:00 | 00:00:00 | |
| IW2NTF | 2026-09-04 13:02:37 | 41.66650 | 8.81061 | 311° | 55km/h | 32508m | 2.1m/s | 0°C | 0% | 0hPa | 0V | 00:00:00 | 00:00:00 | 00:00:00 | |
| RDZ2B | 2026-09-04 13:02:23 | 41.66635 | 8.81152 | 302° | 44km/h | 32447m | 2.7m/s | 0°C | 0% | 0hPa | 0V | 00:00:00 | 00:00:00 | 00:00:00 | |
| IW2NTF | 2026-09-04 13:02:18 | 41.66620 | 8.81225 | 319° | 46km/h | 32386m | 1.8m/s | 0°C | 0% | 0hPa | 0V | 00:00:00 | 00:00:00 | 00:00:00 | |
| RDZBGO | 2026-09-04 13:02:13 | 41.66620 | 8.81225 | 320° | 46km/h | 32386m | 1.8m/s | 0°C | 0% | 0hPa | 0V | 00:00:00 | 00:00:00 | 00:00:00 | |
| RDZ2B | 2026-09-04 13:01:58 | 41.66606 | 8.81386 | 232° | 42km/h | 32299m | 2.1m/s | 0°C | 0% | 0hPa | 0V | 00:00:00 | 00:00:00 | 00:00:00 | |
| IW2NTF | 2026-09-04 13:01:46 | 41.66571 | 8.81513 | 296° | 44km/h | 32208m | 4.8m/s | 0°C | 0% | 0hPa | 0V | 00:00:00 | 00:00:00 | 00:00:00 | |
| RDZBGO | 2026-09-04 13:01:42 | 41.66571 | 8.81513 | 298° | 44km/h | 32208m | 4.8m/s | 0°C | 0% | 0hPa | 0V | 00:00:00 | 00:00:00 | 00:00:00 | |
| IW2NTF | 2026-09-04 13:01:36 | 41.66576 | 8.81619 | 298° | 46km/h | 32152m | 4.8m/s | 0°C | 0% | 0hPa | 0V | 00:00:00 | 00:00:00 | 00:00:00 | |
| IW2NTF | 2026-09-04 13:01:24 | 41.66603 | 8.81794 | 223° | 49km/h | 32070m | 5.1m/s | 0°C | 0% | 0hPa | 0V | 00:00:00 | 00:00:00 | 00:00:00 | |
| RDZ2B | 2026-09-04 13:01:01 | 41.66632 | 8.81897 | 296° | 37km/h | 31974m | 5.8m/s | 0°C | 0% | 0hPa | 0V | 00:00:00 | 00:00:00 | 00:00:00 | |
| IW2NTF | 2026-09-04 13:00:47 | 41.66665 | 8.81973 | 343° | 42km/h | 31876m | 4.2m/s | 0°C | 0% | 0hPa | 0V | 00:00:00 | 00:00:00 | 00:00:00 | |
| IW2NTF | 2026-09-04 13:00:34 | 41.66667 | 8.82066 | 325° | 44km/h | 31778m | -3.5m/s | 0°C | 0% | 0hPa | 0V | 00:00:00 | 00:00:00 | 00:00:00 | |
| RDZ2B | 2026-09-04 13:00:27 | 41.66667 | 8.82066 | 326° | 44km/h | 31779m | -3.6m/s | 0°C | 0% | 0hPa | 0V | 00:00:00 | 00:00:00 | 00:00:00 | |
| IW2NTF | 2026-09-04 13:00:00 | 41.66660 | 8.82343 | 251° | 71km/h | 31595m | 3.4m/s | 0°C | 0% | 0hPa | 0V | 00:00:00 | 00:00:00 | 00:00:00 | |
| RDZ2B | 2026-09-04 12:59:46 | 41.66673 | 8.82428 | 237° | 71km/h | 31549m | 3.0m/s | 0°C | 0% | 0hPa | 0V | 00:00:00 | 00:00:00 | 00:00:00 | |
| IW2NTF | 2026-09-04 12:59:34 | 41.66718 | 8.82565 | 156° | 29km/h | 31438m | 10.3m/s | 0°C | 0% | 0hPa | 0V | 00:00:00 | 00:00:00 | 00:00:00 | |
| RDZ2B | 2026-09-04 12:59:24 | 41.66719 | 8.82547 | 353° | 24km/h | 31423m | 4.9m/s | 0°C | 0% | 0hPa | 0V | 00:00:00 | 00:00:00 | 00:00:00 | |
| RDZ2B | 2026-09-04 12:59:03 | 41.66702 | 8.82669 | 187° | 53km/h | 31297m | 7.1m/s | 0°C | 0% | 0hPa | 0V | 00:00:00 | 00:00:00 | 00:00:00 | |
| RDZ2B | 2026-09-04 12:58:41 | 41.66701 | 8.82796 | 223° | 49km/h | 31167m | 7.3m/s | 0°C | 0% | 0hPa | 0V | 00:00:00 | 00:00:00 | 00:00:00 | |
| RDZ2B | 2026-09-04 12:58:21 | 41.66710 | 8.82892 | 146° | 27km/h | 31044m | 3.0m/s | 0°C | 0% | 0hPa | 0V | 00:00:00 | 00:00:00 | 00:00:00 | |
| IW2NTF | 2026-09-04 12:58:12 | 41.66700 | 8.83012 | 257° | 62km/h | 30962m | 6.2m/s | 0°C | 0% | 0hPa | 0V | 00:00:00 | 00:00:00 | 00:00:00 | |
| RDZ2B | 2026-09-04 12:57:56 | 41.66740 | 8.83099 | 182° | 62km/h | 30904m | 7.8m/s | 0°C | 0% | 0hPa | 0V | 00:00:00 | 00:00:00 | 00:00:00 | |
| IW2NTF | 2026-09-04 12:57:52 | 41.66748 | 8.83141 | 147° | 47km/h | 30856m | 6.4m/s | 0°C | 0% | 0hPa | 0V | 00:00:00 | 00:00:00 | 00:00:00 | |
| RDZ2B | 2026-09-04 12:57:34 | 41.66750 | 8.83229 | 196° | 58km/h | 30765m | 9.0m/s | 0°C | 0% | 0hPa | 0V | 00:00:00 | 00:00:00 | 00:00:00 | |
| IW2NTF | 2026-09-04 12:57:26 | 41.66746 | 8.83303 | 249° | 62km/h | 30676m | 4.6m/s | 0°C | 0% | 0hPa | 0V | 00:00:00 | 00:00:00 | 00:00:00 | |
| RDZBGO | 2026-09-04 12:57:21 | 41.66744 | 8.83282 | 282° | 66km/h | 30683m | 7.8m/s | 0°C | 0% | 0hPa | 0V | 00:00:00 | 00:00:00 | 00:00:00 | |
| RDZ2B | 2026-09-04 12:57:11 | 41.66756 | 8.83367 | 225° | 38km/h | 30627m | 5.8m/s | 0°C | 0% | 0hPa | 0V | 00:00:00 | 00:00:00 | 00:00:00 | |
| RDZBGO | 2026-09-04 12:56:55 | 41.66777 | 8.83447 | 259° | 57km/h | 30522m | 6.6m/s | 0°C | 0% | 0hPa | 0V | 00:00:00 | 00:00:00 | 00:00:00 | |
| IW2NTF | 2026-09-04 12:56:52 | 41.66807 | 8.83476 | 120° | 18km/h | 30495m | 5.4m/s | 0°C | 0% | 0hPa | 0V | 00:00:00 | 00:00:00 | 00:00:00 | |
| RDZ2B | 2026-09-04 12:56:50 | 41.66807 | 8.83476 | 122° | 18km/h | 30495m | 5.4m/s | 0°C | 0% | 0hPa | 0V | 00:00:00 | 00:00:00 | 00:00:00 | |
| RDZBGO | 2026-09-04 12:56:28 | 41.66822 | 8.83538 | 324° | 57km/h | 30376m | 4.8m/s | 0°C | 0% | 0hPa | 0V | 00:00:00 | 00:00:00 | 00:00:00 | |
| RDZ2B | 2026-09-04 12:56:03 | 41.66831 | 8.83623 | 215° | 55km/h | 30226m | 10.9m/s | 0°C | 0% | 0hPa | 0V | 00:00:00 | 00:00:00 | 00:00:00 | |
| IW2NTF | 2026-09-04 12:56:00 | 41.66851 | 8.83634 | 129° | 44km/h | 30174m | 4.8m/s | 0°C | 0% | 0hPa | 0V | 00:00:00 | 00:00:00 | 00:00:00 | |
| RDZBGO | 2026-09-04 12:55:57 | 41.66828 | 8.83612 | 278° | 58km/h | 30190m | 3.6m/s | 0°C | 0% | 0hPa | 0V | 00:00:00 | 00:00:00 | 00:00:00 | |
| RDZ2B | 2026-09-04 12:55:42 | 41.66811 | 8.83644 | 301° | 46km/h | 30100m | 3.2m/s | 0°C | 0% | 0hPa | 0V | 00:00:00 | 00:00:00 | 00:00:00 | |
| RDZBGO | 2026-09-04 12:55:31 | 41.66787 | 8.83709 | 216° | 38km/h | 30031m | 12.7m/s | 0°C | 0% | 0hPa | 0V | 00:00:00 | 00:00:00 | 00:00:00 | |
| RDZ2B | 2026-09-04 12:55:21 | 41.66771 | 8.83775 | 180° | 35km/h | 29975m | 6.5m/s | 0°C | 0% | 0hPa | 0V | 00:00:00 | 00:00:00 | 00:00:00 | |
| IW2NTF | 2026-09-04 12:55:17 | 41.66739 | 8.83790 | 272° | 64km/h | 29941m | 6.2m/s | 0°C | 0% | 0hPa | 0V | 00:00:00 | 00:00:00 | 00:00:00 | |
| RDZBGO | 2026-09-04 12:55:09 | 41.66727 | 8.83803 | 348° | 71km/h | 29912m | 0.6m/s | 0°C | 0% | 0hPa | 0V | 00:00:00 | 00:00:00 | 00:00:00 | |
| IW2NTF | 2026-09-04 12:55:07 | 41.66703 | 8.83833 | 318° | 71km/h | 29866m | 6.2m/s | 0°C | 0% | 0hPa | 0V | 00:00:00 | 00:00:00 | 00:00:00 | |
| RDZ2B | 2026-09-04 12:54:58 | 41.66708 | 8.83883 | 187° | 51km/h | 29844m | 5.5m/s | 0°C | 0% | 0hPa | 0V | 00:00:00 | 00:00:00 | 00:00:00 | |
| RDZBGO | 2026-09-04 12:54:49 | 41.66714 | 8.83895 | 97° | 37km/h | 29793m | 4.1m/s | 0°C | 0% | 0hPa | 0V | 00:00:00 | 00:00:00 | 00:00:00 | |
| RDZ2B | 2026-09-04 12:54:36 | 41.66692 | 8.83939 | 202° | 57km/h | 29716m | 5.7m/s | 0°C | 0% | 0hPa | 0V | 00:00:00 | 00:00:00 | 00:00:00 | |
| RDZBGO | 2026-09-04 12:54:29 | 41.66683 | 8.83935 | 220° | 46km/h | 29677m | 9.1m/s | 0°C | 0% | 0hPa | 0V | 00:00:00 | 00:00:00 | 00:00:00 | |
| RDZ2B | 2026-09-04 12:54:15 | 41.66666 | 8.83924 | 280° | 35km/h | 29593m | 3.7m/s | 0°C | 0% | 0hPa | 0V | 00:00:00 | 00:00:00 | 00:00:00 | |
| RDZBGO | 2026-09-04 12:54:07 | 41.66649 | 8.83941 | 304° | 55km/h | 29544m | -0.4m/s | 0°C | 0% | 0hPa | 0V | 00:00:00 | 00:00:00 | 00:00:00 | |
| RDZ2B | 2026-09-04 12:53:54 | 41.66631 | 8.83986 | 113° | 31km/h | 29469m | 5.9m/s | 0°C | 0% | 0hPa | 0V | 00:00:00 | 00:00:00 | 00:00:00 | |
| RDZBGO | 2026-09-04 12:53:46 | 41.66611 | 8.84006 | 138° | 31km/h | 29422m | 2.8m/s | 0°C | 0% | 0hPa | 0V | 00:00:00 | 00:00:00 | 00:00:00 | |
| RDZ2B | 2026-09-04 12:53:31 | 41.66573 | 8.84053 | 140° | 37km/h | 29334m | 5.6m/s | 0°C | 0% | 0hPa | 0V | 00:00:00 | 00:00:00 | 00:00:00 | |
| RDZBGO | 2026-09-04 12:53:24 | 41.66547 | 8.84084 | 157° | 44km/h | 29289m | 4.2m/s | 0°C | 0% | 0hPa | 0V | 00:00:00 | 00:00:00 | 00:00:00 | |
| RDZ2B | 2026-09-04 12:53:09 | 41.66493 | 8.84126 | 163° | 47km/h | 29200m | 3.9m/s | 0°C | 0% | 0hPa | 0V | 00:00:00 | 00:00:00 | 00:00:00 | |
| RDZBGO | 2026-09-04 12:53:00 | 41.66487 | 8.84120 | 102° | 51km/h | 29146m | 2.6m/s | 0°C | 0% | 0hPa | 0V | 00:00:00 | 00:00:00 | 00:00:00 | |
| RDZ2B | 2026-09-04 12:52:46 | 41.66465 | 8.84145 | 170° | 49km/h | 29067m | 9.1m/s | 0°C | 0% | 0hPa | 0V | 00:00:00 | 00:00:00 | 00:00:00 | |
| IW2NTF | 2026-09-04 12:52:45 | 41.66438 | 8.84147 | 251° | 55km/h | 29029m | 6.6m/s | 0°C | 0% | 0hPa | 0V | 00:00:00 | 00:00:00 | 00:00:00 | |
| RDZBGO | 2026-09-04 12:52:35 | 41.66419 | 8.84141 | 322° | 69km/h | 28996m | 3.9m/s | 0°C | 0% | 0hPa | 0V | 00:00:00 | 00:00:00 | 00:00:00 | |
| RDZ2B | 2026-09-04 12:52:24 | 41.66379 | 8.84211 | 249° | 35km/h | 28942m | 8.5m/s | 0°C | 0% | 0hPa | 0V | 00:00:00 | 00:00:00 | 00:00:00 | |
| IW2NTF | 2026-09-04 12:52:23 | 41.66352 | 8.84208 | 290° | 62km/h | 28901m | 3.7m/s | 0°C | 0% | 0hPa | 0V | 00:00:00 | 00:00:00 | 00:00:00 | |
| RDZBGO | 2026-09-04 12:52:11 | 41.66329 | 8.84225 | 302° | 51km/h | 28859m | 1.1m/s | 0°C | 0% | 0hPa | 0V | 00:00:00 | 00:00:00 | 00:00:00 | |
| IW2NTF | 2026-09-04 12:52:10 | 41.66339 | 8.84243 | 93° | 33km/h | 28834m | 1.9m/s | 0°C | 0% | 0hPa | 0V | 00:00:00 | 00:00:00 | 00:00:00 | |
| RDZ2B | 2026-09-04 12:52:03 | 41.66308 | 8.84246 | 304° | 55km/h | 28810m | 1.5m/s | 0°C | 0% | 0hPa | 0V | 00:00:00 | 00:00:00 | 00:00:00 | |
| IW2NTF | 2026-09-04 12:51:50 | 41.66278 | 8.84256 | 20° | 47km/h | 28719m | 7.4m/s | 0°C | 0% | 0hPa | 0V | 00:00:00 | 00:00:00 | 00:00:00 | |
| RDZBGO | 2026-09-04 12:51:48 | 41.66278 | 8.84256 | 22° | 47km/h | 28719m | 7.4m/s | 0°C | 0% | 0hPa | 0V | 00:00:00 | 00:00:00 | 00:00:00 | |
| IW2NTF | 2026-09-04 12:51:44 | 41.66247 | 8.84241 | 345° | 57km/h | 28667m | 5m/s | 0°C | 0% | 0hPa | 0V | 00:00:00 | 00:00:00 | 00:00:00 | |
| RDZ2B | 2026-09-04 12:51:43 | 41.66258 | 8.84282 | 197° | 42km/h | 28690m | 6.4m/s | 0°C | 0% | 0hPa | 0V | 00:00:00 | 00:00:00 | 00:00:00 | |
| RDZBGO | 2026-09-04 12:51:27 | 41.66229 | 8.84275 | 188° | 42km/h | 28604m | 1.6m/s | 0°C | 0% | 0hPa | 0V | 00:00:00 | 00:00:00 | 00:00:00 | |
| IW2NTF | 2026-09-04 12:51:22 | 41.66202 | 8.84258 | 57° | 49km/h | 28549m | 6.8m/s | 0°C | 0% | 0hPa | 0V | 00:00:00 | 00:00:00 | 00:00:00 | |
| RDZ2B | 2026-09-04 12:51:12 | 41.66169 | 8.84296 | 191° | 35km/h | 28517m | 5.2m/s | 0°C | 0% | 0hPa | 0V | 00:00:00 | 00:00:00 | 00:00:00 | |
| RDZBGO | 2026-09-04 12:51:04 | 41.66138 | 8.84318 | 185° | 37km/h | 28466m | 1.0m/s | 0°C | 0% | 0hPa | 0V | 00:00:00 | 00:00:00 | 00:00:00 | |
| IW2NTF | 2026-09-04 12:50:56 | 41.66068 | 8.84359 | 312° | 77km/h | 28402m | 1.5m/s | 0°C | 0% | 0hPa | 0V | 00:00:00 | 00:00:00 | 00:00:00 | |
| RDZ2B | 2026-09-04 12:50:49 | 41.66066 | 8.84407 | 200° | 37km/h | 28382m | 5.9m/s | 0°C | 0% | 0hPa | 0V | 00:00:00 | 00:00:00 | 00:00:00 | |
| IW2NTF | 2026-09-04 12:50:44 | 41.66015 | 8.84459 | 344° | 58km/h | 28318m | 9m/s | 0°C | 0% | 0hPa | 0V | 00:00:00 | 00:00:00 | 00:00:00 | |
| RDZBGO | 2026-09-04 12:50:41 | 41.66031 | 8.84467 | 186° | 26km/h | 28337m | 8.3m/s | 0°C | 0% | 0hPa | 0V | 00:00:00 | 00:00:00 | 00:00:00 | |
| IW2NTF | 2026-09-04 12:50:27 | 41.65971 | 8.84595 | 323° | 49km/h | 28230m | 8.2m/s | 0°C | 0% | 0hPa | 0V | 00:00:00 | 00:00:00 | 00:00:00 | |
| RDZ2B | 2026-09-04 12:50:23 | 41.65971 | 8.84595 | 324° | 49km/h | 28230m | 8.2m/s | 0°C | 0% | 0hPa | 0V | 00:00:00 | 00:00:00 | 00:00:00 | |
| RDZBGO | 2026-09-04 12:50:19 | 41.65966 | 8.84658 | 218° | 44km/h | 28206m | 5.7m/s | 0°C | 0% | 0hPa | 0V | 00:00:00 | 00:00:00 | 00:00:00 | |
| IW2NTF | 2026-09-04 12:50:06 | 41.65991 | 8.84789 | 191° | 38km/h | 28108m | 2.7m/s | 0°C | 0% | 0hPa | 0V | 00:00:00 | 00:00:00 | 00:00:00 | |
| RDZ2B | 2026-09-04 12:50:03 | 41.65982 | 8.84786 | 198° | 35km/h | 28114m | 8.4m/s | 0°C | 0% | 0hPa | 0V | 00:00:00 | 00:00:00 | 00:00:00 | |
| RDZBGO | 2026-09-04 12:49:57 | 41.65998 | 8.84826 | 281° | 20km/h | 28083m | 4.7m/s | 0°C | 0% | 0hPa | 0V | 00:00:00 | 00:00:00 | 00:00:00 | |
| IW2NTF | 2026-09-04 12:49:47 | 41.66060 | 8.84936 | 229° | 13km/h | 28006m | 7.3m/s | 0°C | 0% | 0hPa | 0V | 00:00:00 | 00:00:00 | 00:00:00 | |
| RDZ2B | 2026-09-04 12:49:42 | 41.66060 | 8.84936 | 230° | 13km/h | 28007m | 7.3m/s | 0°C | 0% | 0hPa | 0V | 00:00:00 | 00:00:00 | 00:00:00 | |
| RDZBGO | 2026-09-04 12:49:36 | 41.66097 | 8.84954 | 289° | 47km/h | 27968m | 10.3m/s | 0°C | 0% | 0hPa | 0V | 00:00:00 | 00:00:00 | 00:00:00 | |
| IW2NTF | 2026-09-04 12:49:35 | 41.66115 | 8.84985 | 197° | 46km/h | 27935m | 2.4m/s | 0°C | 0% | 0hPa | 0V | 00:00:00 | 00:00:00 | 00:00:00 | |
| RDZ2B | 2026-09-04 12:49:22 | 41.66132 | 8.85021 | 236° | 46km/h | 27893m | 6.4m/s | 0°C | 0% | 0hPa | 0V | 00:00:00 | 00:00:00 | 00:00:00 | |
| IW2NTF | 2026-09-04 12:49:20 | 41.66133 | 8.85056 | 49° | 9km/h | 27873m | 9.9m/s | 0°C | 0% | 0hPa | 0V | 00:00:00 | 00:00:00 | 00:00:00 | |
| RDZBGO | 2026-09-04 12:49:13 | 41.66140 | 8.85068 | 301° | 46km/h | 27838m | 1.9m/s | 0°C | 0% | 0hPa | 0V | 00:00:00 | 00:00:00 | 00:00:00 | |
| IW2NTF | 2026-09-04 12:49:00 | 41.66137 | 8.85116 | 301° | 24km/h | 27756m | 6.3m/s | 0°C | 0% | 0hPa | 0V | 00:00:00 | 00:00:00 | 00:00:00 | |
| RDZ2B | 2026-09-04 12:49:00 | 41.66140 | 8.85111 | 111° | 9km/h | 27772m | 4.2m/s | 0°C | 0% | 0hPa | 0V | 00:00:00 | 00:00:00 | 00:00:00 | |
| RDZBGO | 2026-09-04 12:48:51 | 41.66126 | 8.85152 | 305° | 33km/h | 27717m | 5.8m/s | 0°C | 0% | 0hPa | 0V | 00:00:00 | 00:00:00 | 00:00:00 | |
| IW2NTF | 2026-09-04 12:48:48 | 41.66115 | 8.85197 | 292° | 51km/h | 27672m | 4m/s | 0°C | 0% | 0hPa | 0V | 00:00:00 | 00:00:00 | 00:00:00 | |
| RDZ2B | 2026-09-04 12:48:38 | 41.66109 | 8.85217 | 139° | 24km/h | 27647m | 3.9m/s | 0°C | 0% | 0hPa | 0V | 00:00:00 | 00:00:00 | 00:00:00 | |
| RDZBGO | 2026-09-04 12:48:29 | 41.66111 | 8.85272 | 162° | 9km/h | 27601m | 4.0m/s | 0°C | 0% | 0hPa | 0V | 00:00:00 | 00:00:00 | 00:00:00 | |
| IW2NTF | 2026-09-04 12:48:28 | 41.66116 | 8.85310 | 235° | 11km/h | 27558m | 4.1m/s | 0°C | 0% | 0hPa | 0V | 00:00:00 | 00:00:00 | 00:00:00 | |
| RDZ2B | 2026-09-04 12:48:15 | 41.66125 | 8.85347 | 160° | 29km/h | 27522m | 8.2m/s | 0°C | 0% | 0hPa | 0V | 00:00:00 | 00:00:00 | 00:00:00 | |
| RDZBGO | 2026-09-04 12:48:09 | 41.66140 | 8.85384 | 262° | 24km/h | 27495m | 0.8m/s | 0°C | 0% | 0hPa | 0V | 00:00:00 | 00:00:00 | 00:00:00 | |
| IW2NTF | 2026-09-04 12:47:55 | 41.66212 | 8.85460 | 213° | 16km/h | 27392m | 8m/s | 0°C | 0% | 0hPa | 0V | 00:00:00 | 00:00:00 | 00:00:00 | |
| RDZ2B | 2026-09-04 12:47:52 | 41.66212 | 8.85460 | 215° | 16km/h | 27392m | 8.0m/s | 0°C | 0% | 0hPa | 0V | 00:00:00 | 00:00:00 | 00:00:00 | |
| RDZBGO | 2026-09-04 12:47:48 | 41.66212 | 8.85473 | 290° | 26km/h | 27371m | 5.7m/s | 0°C | 0% | 0hPa | 0V | 00:00:00 | 00:00:00 | 00:00:00 | |
| IW2NTF | 2026-09-04 12:47:35 | 41.66221 | 8.85572 | 304° | 24km/h | 27277m | 4.4m/s | 0°C | 0% | 0hPa | 0V | 00:00:00 | 00:00:00 | 00:00:00 | |
| RDZ2B | 2026-09-04 12:47:32 | 41.66221 | 8.85572 | 305° | 24km/h | 27277m | 4.4m/s | 0°C | 0% | 0hPa | 0V | 00:00:00 | 00:00:00 | 00:00:00 | |
| RDZBGO | 2026-09-04 12:47:26 | 41.66237 | 8.85607 | 276° | 35km/h | 27244m | 7.1m/s | 0°C | 0% | 0hPa | 0V | 00:00:00 | 00:00:00 | 00:00:00 | |
| IW2NTF | 2026-09-04 12:47:15 | 41.66268 | 8.85697 | 352° | 22km/h | 27148m | 5.3m/s | 0°C | 0% | 0hPa | 0V | 00:00:00 | 00:00:00 | 00:00:00 | |
| RDZ2B | 2026-09-04 12:47:08 | 41.66264 | 8.85695 | 60° | 20km/h | 27143m | 5.5m/s | 0°C | 0% | 0hPa | 0V | 00:00:00 | 00:00:00 | 00:00:00 | |
| RDZBGO | 2026-09-04 12:47:06 | 41.66272 | 8.85687 | 183° | 37km/h | 27134m | 4.9m/s | 0°C | 0% | 0hPa | 0V | 00:00:00 | 00:00:00 | 00:00:00 | |
| IW2NTF | 2026-09-04 12:46:50 | 41.66353 | 8.85759 | 305° | 26km/h | 27020m | 4.5m/s | 0°C | 0% | 0hPa | 0V | 00:00:00 | 00:00:00 | 00:00:00 | |
| RDZBGO | 2026-09-04 12:46:45 | 41.66350 | 8.85763 | 324° | 9km/h | 27016m | 4.5m/s | 0°C | 0% | 0hPa | 0V | 00:00:00 | 00:00:00 | 00:00:00 | |
| RDZ2B | 2026-09-04 12:46:42 | 41.66360 | 8.85758 | 180° | 27km/h | 26998m | 4.8m/s | 0°C | 0% | 0hPa | 0V | 00:00:00 | 00:00:00 | 00:00:00 | |
| IW2NTF | 2026-09-04 12:46:33 | 41.66381 | 8.85776 | 152° | 15km/h | 26917m | 2.9m/s | 0°C | 0% | 0hPa | 0V | 00:00:00 | 00:00:00 | 00:00:00 | |
| RDZBGO | 2026-09-04 12:46:25 | 41.66384 | 8.85780 | 279° | 20km/h | 26904m | 7.1m/s | 0°C | 0% | 0hPa | 0V | 00:00:00 | 00:00:00 | 00:00:00 | |
| RDZ2B | 2026-09-04 12:46:17 | 41.66388 | 8.85786 | 282° | 24km/h | 26860m | 5.2m/s | 0°C | 0% | 0hPa | 0V | 00:00:00 | 00:00:00 | 00:00:00 | |
| IW2NTF | 2026-09-04 12:46:14 | 41.66392 | 8.85787 | 217° | 5km/h | 26831m | 7.2m/s | 0°C | 0% | 0hPa | 0V | 00:00:00 | 00:00:00 | 00:00:00 | |
| RDZBGO | 2026-09-04 12:46:01 | 41.66410 | 8.85808 | 246° | 20km/h | 26775m | 4.6m/s | 0°C | 0% | 0hPa | 0V | 00:00:00 | 00:00:00 | 00:00:00 | |
| RDZ2B | 2026-09-04 12:45:47 | 41.66438 | 8.85822 | 285° | 22km/h | 26703m | 1.2m/s | 0°C | 0% | 0hPa | 0V | 00:00:00 | 00:00:00 | 00:00:00 | |
| RDZBGO | 2026-09-04 12:45:39 | 41.66459 | 8.85824 | 300° | 16km/h | 26660m | 4.0m/s | 0°C | 0% | 0hPa | 0V | 00:00:00 | 00:00:00 | 00:00:00 | |
| RDZBGO | 2026-09-04 12:45:18 | 41.66491 | 8.85826 | 263° | 24km/h | 26547m | 6.7m/s | 0°C | 0% | 0hPa | 0V | 00:00:00 | 00:00:00 | 00:00:00 | |
| RDZ2B | 2026-09-04 12:45:17 | 41.66491 | 8.85834 | 279° | 24km/h | 26542m | 2.1m/s | 0°C | 0% | 0hPa | 0V | 00:00:00 | 00:00:00 | 00:00:00 | |
| RDZ2B | 2026-09-04 12:44:56 | 41.66500 | 8.85804 | 325° | 20km/h | 26430m | 5.0m/s | 0°C | 0% | 0hPa | 0V | 00:00:00 | 00:00:00 | 00:00:00 | |
| RDZBGO | 2026-09-04 12:44:55 | 41.66497 | 8.85808 | 280° | 11km/h | 26426m | 1.8m/s | 0°C | 0% | 0hPa | 0V | 00:00:00 | 00:00:00 | 00:00:00 | |
| RDZBGO | 2026-09-04 12:44:32 | 41.66478 | 8.85774 | 347° | 27km/h | 26304m | 3.9m/s | 0°C | 0% | 0hPa | 0V | 00:00:00 | 00:00:00 | 00:00:00 | |
| RDZ2B | 2026-09-04 12:44:11 | 41.66443 | 8.85783 | 293° | 27km/h | 26195m | 8.9m/s | 0°C | 0% | 0hPa | 0V | 00:00:00 | 00:00:00 | 00:00:00 | |
| RDZ2B | 2026-09-04 12:43:50 | 41.66410 | 8.85852 | 255° | 18km/h | 26084m | 6.6m/s | 0°C | 0% | 0hPa | 0V | 00:00:00 | 00:00:00 | 00:00:00 | |
| RDZ2B | 2026-09-04 12:43:28 | 41.66434 | 8.85834 | 357° | 11km/h | 25972m | 7.5m/s | 0°C | 0% | 0hPa | 0V | 00:00:00 | 00:00:00 | 00:00:00 | |
| RDZBGO | 2026-09-04 12:43:27 | 41.66432 | 8.85837 | 271° | 20km/h | 25966m | 5.2m/s | 0°C | 0% | 0hPa | 0V | 00:00:00 | 00:00:00 | 00:00:00 | |
| RDZBGO | 2026-09-04 12:43:06 | 41.66457 | 8.85762 | 65° | 5km/h | 25854m | 6.5m/s | 0°C | 0% | 0hPa | 0V | 00:00:00 | 00:00:00 | 00:00:00 | |
| RDZ2B | 2026-09-04 12:43:04 | 41.66446 | 8.85758 | 15° | 38km/h | 25841m | 5.8m/s | 0°C | 0% | 0hPa | 0V | 00:00:00 | 00:00:00 | 00:00:00 | |
| RDZ2B | 2026-09-04 12:42:42 | 41.66405 | 8.85715 | 305° | 27km/h | 25723m | 3.9m/s | 0°C | 0% | 0hPa | 0V | 00:00:00 | 00:00:00 | 00:00:00 | |
| RDZBGO | 2026-09-04 12:42:20 | 41.66366 | 8.85706 | 297° | 9km/h | 25606m | 4.3m/s | 0°C | 0% | 0hPa | 0V | 00:00:00 | 00:00:00 | 00:00:00 | |
| RDZ2B | 2026-09-04 12:42:17 | 41.66359 | 8.85706 | 23° | 16km/h | 25590m | 4.0m/s | 0°C | 0% | 0hPa | 0V | 00:00:00 | 00:00:00 | 00:00:00 | |
| IW2NTF | 2026-09-04 12:41:54 | 41.66320 | 8.85740 | 307° | 16km/h | 25446m | 2.8m/s | 0°C | 0% | 0hPa | 0V | 00:00:00 | 00:00:00 | 00:00:00 | |
| RDZBGO | 2026-09-04 12:41:51 | 41.66323 | 8.85736 | 344° | 20km/h | 25450m | 5.0m/s | 0°C | 0% | 0hPa | 0V | 00:00:00 | 00:00:00 | 00:00:00 | |
| IW2NTF | 2026-09-04 12:41:42 | 41.66311 | 8.85766 | 8° | 27km/h | 25375m | 3.3m/s | 0°C | 0% | 0hPa | 0V | 00:00:00 | 00:00:00 | 00:00:00 | |
| RDZ2B | 2026-09-04 12:41:26 | 41.66290 | 8.85797 | 272° | 33km/h | 25320m | 6.4m/s | 0°C | 0% | 0hPa | 0V | 00:00:00 | 00:00:00 | 00:00:00 | |
| RDZBGO | 2026-09-04 12:41:19 | 41.66277 | 8.85799 | 316° | 29km/h | 25285m | 8.3m/s | 0°C | 0% | 0hPa | 0V | 00:00:00 | 00:00:00 | 00:00:00 | |
| IW2NTF | 2026-09-04 12:41:14 | 41.66270 | 8.85803 | 11° | 16km/h | 25250m | 5.3m/s | 0°C | 0% | 0hPa | 0V | 00:00:00 | 00:00:00 | 00:00:00 | |
| IW2NTF | 2026-09-04 12:41:04 | 41.66232 | 8.85813 | 25° | 13km/h | 25179m | 4.2m/s | 0°C | 0% | 0hPa | 0V | 00:00:00 | 00:00:00 | 00:00:00 | |
| IW2NTF | 2026-09-04 12:40:52 | 41.66197 | 8.85821 | 31° | 29km/h | 25108m | 4.8m/s | 0°C | 0% | 0hPa | 0V | 00:00:00 | 00:00:00 | 00:00:00 | |
| IW2NTF | 2026-09-04 12:40:34 | 41.66130 | 8.85838 | 6° | 16km/h | 25026m | 4.1m/s | 0°C | 0% | 0hPa | 0V | 00:00:00 | 00:00:00 | 00:00:00 | |
| IW2NTF | 2026-09-04 12:40:20 | 41.66093 | 8.85880 | 320° | 7km/h | 24941m | 6.5m/s | 0°C | 0% | 0hPa | 0V | 00:00:00 | 00:00:00 | 00:00:00 | |
| RDZ2B | 2026-09-04 12:40:16 | 41.66101 | 8.85879 | 2° | 26km/h | 24952m | 4.7m/s | 0°C | 0% | 0hPa | 0V | 00:00:00 | 00:00:00 | 00:00:00 | |
| IW2NTF | 2026-09-04 12:40:04 | 41.66072 | 8.85917 | 131° | 11km/h | 24866m | 6.4m/s | 0°C | 0% | 0hPa | 0V | 00:00:00 | 00:00:00 | 00:00:00 | |
| RDZ2B | 2026-09-04 12:39:53 | 41.66057 | 8.85932 | 229° | 13km/h | 24828m | 5.7m/s | 0°C | 0% | 0hPa | 0V | 00:00:00 | 00:00:00 | 00:00:00 | |
| IW2NTF | 2026-09-04 12:39:52 | 41.66039 | 8.85917 | 339° | 26km/h | 24805m | 1.8m/s | 0°C | 0% | 0hPa | 0V | 00:00:00 | 00:00:00 | 00:00:00 | |
| IW2NTF | 2026-09-04 12:39:42 | 41.66017 | 8.85953 | 251° | 27km/h | 24742m | 3m/s | 0°C | 0% | 0hPa | 0V | 00:00:00 | 00:00:00 | 00:00:00 | |
| IW2NTF | 2026-09-04 12:39:22 | 41.65969 | 8.86023 | 334° | 38km/h | 24648m | 3.4m/s | 0°C | 0% | 0hPa | 0V | 00:00:00 | 00:00:00 | 00:00:00 | |
| RDZ2B | 2026-09-04 12:39:18 | 41.65958 | 8.86038 | 289° | 27km/h | 24639m | 7.2m/s | 0°C | 0% | 0hPa | 0V | 00:00:00 | 00:00:00 | 00:00:00 | |
| IW2NTF | 2026-09-04 12:39:09 | 41.65925 | 8.86097 | 335° | 26km/h | 24570m | 3.4m/s | 0°C | 0% | 0hPa | 0V | 00:00:00 | 00:00:00 | 00:00:00 | |
| IW2NTF | 2026-09-04 12:38:57 | 41.65889 | 8.86177 | 291° | 27km/h | 24505m | 5.9m/s | 0°C | 0% | 0hPa | 0V | 00:00:00 | 00:00:00 | 00:00:00 | |
| IW2NTF | 2026-09-04 12:38:40 | 41.65851 | 8.86249 | 351° | 22km/h | 24416m | 1.8m/s | 0°C | 0% | 0hPa | 0V | 00:00:00 | 00:00:00 | 00:00:00 | |
| IW2NTF | 2026-09-04 12:38:28 | 41.65858 | 8.86294 | 62° | 7km/h | 24346m | 7.2m/s | 0°C | 0% | 0hPa | 0V | 00:00:00 | 00:00:00 | 00:00:00 | |
| RDZ2B | 2026-09-04 12:38:21 | 41.65855 | 8.86292 | 28° | 18km/h | 24340m | 4.4m/s | 0°C | 0% | 0hPa | 0V | 00:00:00 | 00:00:00 | 00:00:00 | |
| RDZ2B | 2026-09-04 12:37:59 | 41.65847 | 8.86316 | 337° | 16km/h | 24223m | 3.5m/s | 0°C | 0% | 0hPa | 0V | 00:00:00 | 00:00:00 | 00:00:00 | |
| RDZ2B | 2026-09-04 12:37:39 | 41.65838 | 8.86303 | 61° | 7km/h | 24120m | 6.4m/s | 0°C | 0% | 0hPa | 0V | 00:00:00 | 00:00:00 | 00:00:00 | |
| RDZBGO | 2026-09-04 12:37:27 | 41.65823 | 8.86318 | 288° | 13km/h | 24055m | 4.1m/s | 0°C | 0% | 0hPa | 0V | 00:00:00 | 00:00:00 | 00:00:00 | |
| RDZ2B | 2026-09-04 12:37:18 | 41.65797 | 8.86323 | 9° | 22km/h | 24007m | 4.2m/s | 0°C | 0% | 0hPa | 0V | 00:00:00 | 00:00:00 | 00:00:00 | |
| RDZBGO | 2026-09-04 12:37:02 | 41.65742 | 8.86347 | 341° | 13km/h | 23923m | 5.7m/s | 0°C | 0% | 0hPa | 0V | 00:00:00 | 00:00:00 | 00:00:00 | |
| IW2NTF | 2026-09-04 12:36:59 | 41.65728 | 8.86358 | 285° | 18km/h | 23897m | 5.9m/s | 0°C | 0% | 0hPa | 0V | 00:00:00 | 00:00:00 | 00:00:00 | |
| RDZ2B | 2026-09-04 12:36:56 | 41.65727 | 8.86365 | 268° | 22km/h | 23891m | 6.0m/s | 0°C | 0% | 0hPa | 0V | 00:00:00 | 00:00:00 | 00:00:00 | |
| IW2NTF | 2026-09-04 12:36:46 | 41.65705 | 8.86397 | 238° | 18km/h | 23810m | 4.2m/s | 0°C | 0% | 0hPa | 0V | 00:00:00 | 00:00:00 | 00:00:00 | |
| RDZBGO | 2026-09-04 12:36:35 | 41.65698 | 8.86400 | 84° | 5km/h | 23784m | 5.6m/s | 0°C | 0% | 0hPa | 0V | 00:00:00 | 00:00:00 | 00:00:00 | |
| RDZ2B | 2026-09-04 12:36:33 | 41.65701 | 8.86398 | 175° | 7km/h | 23774m | 3.7m/s | 0°C | 0% | 0hPa | 0V | 00:00:00 | 00:00:00 | 00:00:00 | |
| IW2NTF | 2026-09-04 12:36:29 | 41.65695 | 8.86411 | 201° | 7km/h | 23740m | 2.9m/s | 0°C | 0% | 0hPa | 0V | 00:00:00 | 00:00:00 | 00:00:00 | |
| RDZBGO | 2026-09-04 12:36:13 | 41.65669 | 8.86429 | 282° | 29km/h | 23675m | 4.5m/s | 0°C | 0% | 0hPa | 0V | 00:00:00 | 00:00:00 | 00:00:00 | |
| RDZ2B | 2026-09-04 12:36:11 | 41.65669 | 8.86443 | 281° | 9km/h | 23667m | 4.9m/s | 0°C | 0% | 0hPa | 0V | 00:00:00 | 00:00:00 | 00:00:00 | |
| RDZBGO | 2026-09-04 12:35:52 | 41.65601 | 8.86462 | 34° | 7km/h | 23571m | 6.1m/s | 0°C | 0% | 0hPa | 0V | 00:00:00 | 00:00:00 | 00:00:00 | |
| RDZ2B | 2026-09-04 12:35:45 | 41.65580 | 8.86476 | 277° | 9km/h | 23535m | 5.3m/s | 0°C | 0% | 0hPa | 0V | 00:00:00 | 00:00:00 | 00:00:00 | |
| RDZBGO | 2026-09-04 12:35:29 | 41.65555 | 8.86505 | 192° | 29km/h | 23459m | 3.0m/s | 0°C | 0% | 0hPa | 0V | 00:00:00 | 00:00:00 | 00:00:00 | |
| RDZ2B | 2026-09-04 12:35:22 | 41.65531 | 8.86512 | 263° | 22km/h | 23424m | 5.3m/s | 0°C | 0% | 0hPa | 0V | 00:00:00 | 00:00:00 | 00:00:00 | |
| IW2NTF | 2026-09-04 12:35:10 | 41.65497 | 8.86555 | 64° | 13km/h | 23343m | 3.9m/s | 0°C | 0% | 0hPa | 0V | 00:00:00 | 00:00:00 | 00:00:00 | |
| RDZBGO | 2026-09-04 12:35:09 | 41.65507 | 8.86551 | 297° | 26km/h | 23359m | 2.9m/s | 0°C | 0% | 0hPa | 0V | 00:00:00 | 00:00:00 | 00:00:00 | |
| RDZ2B | 2026-09-04 12:35:02 | 41.65500 | 8.86569 | 260° | 27km/h | 23324m | 3.5m/s | 0°C | 0% | 0hPa | 0V | 00:00:00 | 00:00:00 | 00:00:00 | |
| RDZBGO | 2026-09-04 12:34:46 | 41.65508 | 8.86632 | 161° | 15km/h | 23243m | 6.2m/s | 0°C | 0% | 0hPa | 0V | 00:00:00 | 00:00:00 | 00:00:00 | |
| RDZ2B | 2026-09-04 12:34:40 | 41.65516 | 8.86662 | 269° | 18km/h | 23214m | 6.0m/s | 0°C | 0% | 0hPa | 0V | 00:00:00 | 00:00:00 | 00:00:00 | |
| IW2NTF | 2026-09-04 12:34:30 | 41.65545 | 8.86705 | 156° | 11km/h | 23141m | 7.1m/s | 0°C | 0% | 0hPa | 0V | 00:00:00 | 00:00:00 | 00:00:00 | |
| RDZBGO | 2026-09-04 12:34:24 | 41.65547 | 8.86700 | 84° | 4km/h | 23132m | 3.1m/s | 0°C | 0% | 0hPa | 0V | 00:00:00 | 00:00:00 | 00:00:00 | |
| RDZ2B | 2026-09-04 12:34:20 | 41.65555 | 8.86718 | 203° | 24km/h | 23113m | 5.5m/s | 0°C | 0% | 0hPa | 0V | 00:00:00 | 00:00:00 | 00:00:00 | |
| IW2NTF | 2026-09-04 12:34:18 | 41.65574 | 8.86706 | 236° | 13km/h | 23084m | 5.3m/s | 0°C | 0% | 0hPa | 0V | 00:00:00 | 00:00:00 | 00:00:00 | |
| RDZBGO | 2026-09-04 12:34:01 | 41.65603 | 8.86713 | 281° | 16km/h | 23011m | 4.1m/s | 0°C | 0% | 0hPa | 0V | 00:00:00 | 00:00:00 | 00:00:00 | |
| RDZ2B | 2026-09-04 12:34:00 | 41.65602 | 8.86717 | 290° | 5km/h | 23007m | 4.6m/s | 0°C | 0% | 0hPa | 0V | 00:00:00 | 00:00:00 | 00:00:00 | |
| IW2NTF | 2026-09-04 12:33:57 | 41.65601 | 8.86712 | 69° | 9km/h | 22958m | 4.8m/s | 0°C | 0% | 0hPa | 0V | 00:00:00 | 00:00:00 | 00:00:00 | |
| RDZ2B | 2026-09-04 12:33:40 | 41.65582 | 8.86699 | 21° | 13km/h | 22902m | 6.0m/s | 0°C | 0% | 0hPa | 0V | 00:00:00 | 00:00:00 | 00:00:00 | |
| IW2NTF | 2026-09-04 12:33:36 | 41.65569 | 8.86676 | 79° | 20km/h | 22855m | 2.7m/s | 0°C | 0% | 0hPa | 0V | 00:00:00 | 00:00:00 | 00:00:00 | |
| IW2NTF | 2026-09-04 12:33:19 | 41.65501 | 8.86642 | 79° | 15km/h | 22763m | 6m/s | 0°C | 0% | 0hPa | 0V | 00:00:00 | 00:00:00 | 00:00:00 | |
| RDZ2B | 2026-09-04 12:33:17 | 41.65515 | 8.86656 | 22° | 24km/h | 22783m | 4.8m/s | 0°C | 0% | 0hPa | 0V | 00:00:00 | 00:00:00 | 00:00:00 | |
| IW2NTF | 2026-09-04 12:33:06 | 41.65458 | 8.86641 | 333° | 49km/h | 22701m | 5.5m/s | 0°C | 0% | 0hPa | 0V | 00:00:00 | 00:00:00 | 00:00:00 | |
| RDZBGO | 2026-09-04 12:32:58 | 41.65428 | 8.86640 | 87° | 16km/h | 22681m | 5.0m/s | 0°C | 0% | 0hPa | 0V | 00:00:00 | 00:00:00 | 00:00:00 | |
| RDZ2B | 2026-09-04 12:32:57 | 41.65428 | 8.86640 | 87° | 16km/h | 22681m | 5.0m/s | 0°C | 0% | 0hPa | 0V | 00:00:00 | 00:00:00 | 00:00:00 | |
| IW2NTF | 2026-09-04 12:32:48 | 41.65361 | 8.86638 | 348° | 24km/h | 22623m | 5.8m/s | 0°C | 0% | 0hPa | 0V | 00:00:00 | 00:00:00 | 00:00:00 | |
| IW2NTF | 2026-09-04 12:32:34 | 41.65287 | 8.86634 | 324° | 33km/h | 22558m | 2.1m/s | 0°C | 0% | 0hPa | 0V | 00:00:00 | 00:00:00 | 00:00:00 | |
| IW2NTF | 2026-09-04 12:32:18 | 41.65209 | 8.86638 | 305° | 33km/h | 22477m | 2.4m/s | 0°C | 0% | 0hPa | 0V | 00:00:00 | 00:00:00 | 00:00:00 | |
| RDZ2B | 2026-09-04 12:32:13 | 41.65197 | 8.86639 | 71° | 24km/h | 22462m | 5.1m/s | 0°C | 0% | 0hPa | 0V | 00:00:00 | 00:00:00 | 00:00:00 | |
| IW2NTF | 2026-09-04 12:32:12 | 41.65168 | 8.86641 | 19° | 24km/h | 22428m | 4.5m/s | 0°C | 0% | 0hPa | 0V | 00:00:00 | 00:00:00 | 00:00:00 | |
| RDZBGO | 2026-09-04 12:32:11 | 41.65194 | 8.86628 | 43° | 7km/h | 22454m | 4.3m/s | 0°C | 0% | 0hPa | 0V | 00:00:00 | 00:00:00 | 00:00:00 | |
| RDZ2B | 2026-09-04 12:31:52 | 41.65121 | 8.86669 | 42° | 13km/h | 22363m | 6.9m/s | 0°C | 0% | 0hPa | 0V | 00:00:00 | 00:00:00 | 00:00:00 | |
| RDZBGO | 2026-09-04 12:31:46 | 41.65092 | 8.86691 | 292° | 24km/h | 22335m | 4.3m/s | 0°C | 0% | 0hPa | 0V | 00:00:00 | 00:00:00 | 00:00:00 | |
| IW2NTF | 2026-09-04 12:31:42 | 41.65054 | 8.86731 | 301° | 18km/h | 22285m | 4.8m/s | 0°C | 0% | 0hPa | 0V | 00:00:00 | 00:00:00 | 00:00:00 | |
| RDZ2B | 2026-09-04 12:31:33 | 41.65033 | 8.86751 | 345° | 27km/h | 22266m | 6.0m/s | 0°C | 0% | 0hPa | 0V | 00:00:00 | 00:00:00 | 00:00:00 | |
| RDZBGO | 2026-09-04 12:31:25 | 41.65012 | 8.86794 | 4° | 15km/h | 22233m | 6.6m/s | 0°C | 0% | 0hPa | 0V | 00:00:00 | 00:00:00 | 00:00:00 | |
| RDZ2B | 2026-09-04 12:31:11 | 41.64982 | 8.86876 | 284° | 7km/h | 22165m | 5.4m/s | 0°C | 0% | 0hPa | 0V | 00:00:00 | 00:00:00 | 00:00:00 | |
| IW2NTF | 2026-09-04 12:31:04 | 41.64971 | 8.86944 | 283° | 24km/h | 22111m | 4.6m/s | 0°C | 0% | 0hPa | 0V | 00:00:00 | 00:00:00 | 00:00:00 | |
| RDZBGO | 2026-09-04 12:31:02 | 41.64971 | 8.86927 | 261° | 24km/h | 22121m | 5.9m/s | 0°C | 0% | 0hPa | 0V | 00:00:00 | 00:00:00 | 00:00:00 | |
| RDZ2B | 2026-09-04 12:30:51 | 41.64961 | 8.86994 | 0° | 0km/h | 22067m | 5.5m/s | 0°C | 0% | 0hPa | 0V | 00:00:00 | 00:00:00 | 00:00:00 | |
| RDZBGO | 2026-09-04 12:30:42 | 41.64956 | 8.87036 | 284° | 15km/h | 22023m | 5.7m/s | 0°C | 0% | 0hPa | 0V | 00:00:00 | 00:00:00 | 00:00:00 | |
| IW2NTF | 2026-09-04 12:30:34 | 41.64959 | 8.87100 | 260° | 15km/h | 21963m | 5.2m/s | 0°C | 0% | 0hPa | 0V | 00:00:00 | 00:00:00 | 00:00:00 | |
| RDZ2B | 2026-09-04 12:30:31 | 41.64958 | 8.87096 | 240° | 11km/h | 21968m | 3.8m/s | 0°C | 0% | 0hPa | 0V | 00:00:00 | 00:00:00 | 00:00:00 | |
| RDZBGO | 2026-09-04 12:30:22 | 41.64966 | 8.87153 | 275° | 33km/h | 21923m | 3.7m/s | 0°C | 0% | 0hPa | 0V | 00:00:00 | 00:00:00 | 00:00:00 | |
| IW2NTF | 2026-09-04 12:30:05 | 41.64987 | 8.87288 | 190° | 9km/h | 21814m | 6.7m/s | 0°C | 0% | 0hPa | 0V | 00:00:00 | 00:00:00 | 00:00:00 | |
| RDZBGO | 2026-09-04 12:30:01 | 41.64985 | 8.87286 | 240° | 11km/h | 21820m | 4.6m/s | 0°C | 0% | 0hPa | 0V | 00:00:00 | 00:00:00 | 00:00:00 | |
| IW2NTF | 2026-09-04 12:29:50 | 41.65006 | 8.87355 | 220° | 22km/h | 21730m | 3.5m/s | 0°C | 0% | 0hPa | 0V | 00:00:00 | 00:00:00 | 00:00:00 | |
| RDZ2B | 2026-09-04 12:29:47 | 41.65005 | 8.87341 | 322° | 13km/h | 21749m | 5.6m/s | 0°C | 0% | 0hPa | 0V | 00:00:00 | 00:00:00 | 00:00:00 | |
| RDZBGO | 2026-09-04 12:29:41 | 41.65013 | 8.87360 | 179° | 7km/h | 21721m | 6.4m/s | 0°C | 0% | 0hPa | 0V | 00:00:00 | 00:00:00 | 00:00:00 | |
| IW2NTF | 2026-09-04 12:29:33 | 41.65025 | 8.87376 | 276° | 7km/h | 21662m | 5.5m/s | 0°C | 0% | 0hPa | 0V | 00:00:00 | 00:00:00 | 00:00:00 | |
| RDZ2B | 2026-09-04 12:29:26 | 41.65029 | 8.87374 | 171° | 9km/h | 21647m | 5.6m/s | 0°C | 0% | 0hPa | 0V | 00:00:00 | 00:00:00 | 00:00:00 | |
| RDZBGO | 2026-09-04 12:29:20 | 41.65031 | 8.87376 | 281° | 4km/h | 21617m | 6.0m/s | 0°C | 0% | 0hPa | 0V | 00:00:00 | 00:00:00 | 00:00:00 | |
| IW2NTF | 2026-09-04 12:29:05 | 41.65003 | 8.87388 | 252° | 9km/h | 21518m | 5.8m/s | 0°C | 0% | 0hPa | 0V | 00:00:00 | 00:00:00 | 00:00:00 | |
| RDZBGO | 2026-09-04 12:29:00 | 41.65004 | 8.87390 | 229° | 5km/h | 21514m | 2.8m/s | 0°C | 0% | 0hPa | 0V | 00:00:00 | 00:00:00 | 00:00:00 | |
| IW2NTF | 2026-09-04 12:28:55 | 41.64980 | 8.87397 | 33° | 22km/h | 21464m | 4.3m/s | 0°C | 0% | 0hPa | 0V | 00:00:00 | 00:00:00 | 00:00:00 | |
| IW2NTF | 2026-09-04 12:28:45 | 41.64946 | 8.87436 | 284° | 33km/h | 21407m | 2.8m/s | 0°C | 0% | 0hPa | 0V | 00:00:00 | 00:00:00 | 00:00:00 | |
| RDZ2B | 2026-09-04 12:28:44 | 41.64958 | 8.87418 | 129° | 9km/h | 21435m | 7.3m/s | 0°C | 0% | 0hPa | 0V | 00:00:00 | 00:00:00 | 00:00:00 | |
| RDZBGO | 2026-09-04 12:28:39 | 41.64949 | 8.87423 | 288° | 42km/h | 21411m | 4.9m/s | 0°C | 0% | 0hPa | 0V | 00:00:00 | 00:00:00 | 00:00:00 | |
| IW2NTF | 2026-09-04 12:28:33 | 41.64912 | 8.87475 | 320° | 11km/h | 21351m | 4.7m/s | 0°C | 0% | 0hPa | 0V | 00:00:00 | 00:00:00 | 00:00:00 | |
| RDZ2B | 2026-09-04 12:28:23 | 41.64907 | 8.87507 | 281° | 26km/h | 21330m | 5.8m/s | 0°C | 0% | 0hPa | 0V | 00:00:00 | 00:00:00 | 00:00:00 | |
| IW2NTF | 2026-09-04 12:28:22 | 41.64883 | 8.87554 | 261° | 20km/h | 21292m | 6.8m/s | 0°C | 0% | 0hPa | 0V | 00:00:00 | 00:00:00 | 00:00:00 | |
| IW2NTF | 2026-09-04 12:28:12 | 41.64870 | 8.87621 | 228° | 18km/h | 21249m | 1.2m/s | 0°C | 0% | 0hPa | 0V | 00:00:00 | 00:00:00 | 00:00:00 | |
| RDZ2B | 2026-09-04 12:28:00 | 41.64860 | 8.87696 | 189° | 13km/h | 21213m | 6.0m/s | 0°C | 0% | 0hPa | 0V | 00:00:00 | 00:00:00 | 00:00:00 | |
| IW2NTF | 2026-09-04 12:27:58 | 41.64869 | 8.87725 | 275° | 42km/h | 21193m | 4.7m/s | 0°C | 0% | 0hPa | 0V | 00:00:00 | 00:00:00 | 00:00:00 | |
| RDZBGO | 2026-09-04 12:27:57 | 41.64869 | 8.87712 | 264° | 35km/h | 21199m | 6.5m/s | 0°C | 0% | 0hPa | 0V | 00:00:00 | 00:00:00 | 00:00:00 | |
| IW2NTF | 2026-09-04 12:27:52 | 41.64880 | 8.87815 | 243° | 11km/h | 21143m | 6.1m/s | 0°C | 0% | 0hPa | 0V | 00:00:00 | 00:00:00 | 00:00:00 | |
| IW2NTF | 2026-09-04 12:27:40 | 41.64901 | 8.87878 | 242° | 26km/h | 21093m | 5.5m/s | 0°C | 0% | 0hPa | 0V | 00:00:00 | 00:00:00 | 00:00:00 | |
| RDZ2B | 2026-09-04 12:27:39 | 41.64894 | 8.87867 | 237° | 9km/h | 21108m | 6.2m/s | 0°C | 0% | 0hPa | 0V | 00:00:00 | 00:00:00 | 00:00:00 | |
| RDZBGO | 2026-09-04 12:27:37 | 41.64898 | 8.87872 | 232° | 16km/h | 21099m | 5.5m/s | 0°C | 0% | 0hPa | 0V | 00:00:00 | 00:00:00 | 00:00:00 | |
| IW2NTF | 2026-09-04 12:27:26 | 41.64939 | 8.87937 | 232° | 20km/h | 21034m | 6.7m/s | 0°C | 0% | 0hPa | 0V | 00:00:00 | 00:00:00 | 00:00:00 | |
| RDZ2B | 2026-09-04 12:27:19 | 41.64949 | 8.87960 | 144° | 20km/h | 21008m | 5.4m/s | 0°C | 0% | 0hPa | 0V | 00:00:00 | 00:00:00 | 00:00:00 | |
| RDZBGO | 2026-09-04 12:27:17 | 41.64957 | 8.87956 | 197° | 18km/h | 20999m | 5.7m/s | 0°C | 0% | 0hPa | 0V | 00:00:00 | 00:00:00 | 00:00:00 | |
| IW2NTF | 2026-09-04 12:27:12 | 41.65008 | 8.87981 | 180° | 33km/h | 20944m | 3.8m/s | 0°C | 0% | 0hPa | 0V | 00:00:00 | 00:00:00 | 00:00:00 | |
| IW2NTF | 2026-09-04 12:26:59 | 41.65060 | 8.88008 | 129° | 11km/h | 20885m | 5.9m/s | 0°C | 0% | 0hPa | 0V | 00:00:00 | 00:00:00 | 00:00:00 | |
| RDZ2B | 2026-09-04 12:26:56 | 41.65056 | 8.87998 | 245° | 24km/h | 20899m | 3.8m/s | 0°C | 0% | 0hPa | 0V | 00:00:00 | 00:00:00 | 00:00:00 | |
| IW2NTF | 2026-09-04 12:26:46 | 41.65091 | 8.88021 | 254° | 5km/h | 20835m | 3.8m/s | 0°C | 0% | 0hPa | 0V | 00:00:00 | 00:00:00 | 00:00:00 | |
| RDZ2B | 2026-09-04 12:26:35 | 41.65112 | 8.88042 | 228° | 15km/h | 20804m | 5.0m/s | 0°C | 0% | 0hPa | 0V | 00:00:00 | 00:00:00 | 00:00:00 | |
| IW2NTF | 2026-09-04 12:26:34 | 41.65129 | 8.88042 | 205° | 20km/h | 20784m | 5.4m/s | 0°C | 0% | 0hPa | 0V | 00:00:00 | 00:00:00 | 00:00:00 | |
| IW2NTF | 2026-09-04 12:26:20 | 41.65158 | 8.88078 | 256° | 7km/h | 20721m | 3.1m/s | 0°C | 0% | 0hPa | 0V | 00:00:00 | 00:00:00 | 00:00:00 | |
| RDZ2B | 2026-09-04 12:26:15 | 41.65160 | 8.88076 | 110° | 15km/h | 20711m | 4.6m/s | 0°C | 0% | 0hPa | 0V | 00:00:00 | 00:00:00 | 00:00:00 | |
| IW2NTF | 2026-09-04 12:26:06 | 41.65178 | 8.88088 | 228° | 18km/h | 20661m | 4.5m/s | 0°C | 0% | 0hPa | 0V | 00:00:00 | 00:00:00 | 00:00:00 | |
| IW2NTF | 2026-09-04 12:25:59 | 41.65224 | 8.88112 | 212° | 29km/h | 20612m | 4.6m/s | 0°C | 0% | 0hPa | 0V | 00:00:00 | 00:00:00 | 00:00:00 | |
| RDZ2B | 2026-09-04 12:25:54 | 41.65224 | 8.88112 | 213° | 29km/h | 20612m | 4.6m/s | 0°C | 0% | 0hPa | 0V | 00:00:00 | 00:00:00 | 00:00:00 | |
| IW2NTF | 2026-09-04 12:25:34 | 41.65279 | 8.88121 | 183° | 13km/h | 20504m | 5.9m/s | 0°C | 0% | 0hPa | 0V | 00:00:00 | 00:00:00 | 00:00:00 | |
| RDZ2B | 2026-09-04 12:25:32 | 41.65277 | 8.88119 | 326° | 5km/h | 20513m | 4.3m/s | 0°C | 0% | 0hPa | 0V | 00:00:00 | 00:00:00 | 00:00:00 | |
| IW2NTF | 2026-09-04 12:25:16 | 41.65304 | 8.88166 | 215° | 31km/h | 20420m | 4.7m/s | 0°C | 0% | 0hPa | 0V | 00:00:00 | 00:00:00 | 00:00:00 | |
| RDZBGO | 2026-09-04 12:25:13 | 41.65298 | 8.88160 | 221° | 22km/h | 20426m | 5.9m/s | 0°C | 0% | 0hPa | 0V | 00:00:00 | 00:00:00 | 00:00:00 | |
| IW2NTF | 2026-09-04 12:24:53 | 41.65347 | 8.88249 | 7° | 9km/h | 20319m | 5.8m/s | 0°C | 0% | 0hPa | 0V | 00:00:00 | 00:00:00 | 00:00:00 | |
| RDZBGO | 2026-09-04 12:24:53 | 41.65346 | 8.88229 | 244° | 37km/h | 20333m | 3.6m/s | 0°C | 0% | 0hPa | 0V | 00:00:00 | 00:00:00 | 00:00:00 | |
| RDZ2B | 2026-09-04 12:24:47 | 41.65346 | 8.88244 | 216° | 9km/h | 20306m | 5.3m/s | 0°C | 0% | 0hPa | 0V | 00:00:00 | 00:00:00 | 00:00:00 | |
| RDZBGO | 2026-09-04 12:24:32 | 41.65347 | 8.88302 | 278° | 20km/h | 20233m | 3.6m/s | 0°C | 0% | 0hPa | 0V | 00:00:00 | 00:00:00 | 00:00:00 | |
| RDZ2B | 2026-09-04 12:24:26 | 41.65346 | 8.88318 | 269° | 29km/h | 20204m | 3.7m/s | 0°C | 0% | 0hPa | 0V | 00:00:00 | 00:00:00 | 00:00:00 | |
| RDZBGO | 2026-09-04 12:24:12 | 41.65349 | 8.88391 | 262° | 9km/h | 20138m | 6.0m/s | 0°C | 0% | 0hPa | 0V | 00:00:00 | 00:00:00 | 00:00:00 | |
| RDZ2B | 2026-09-04 12:24:05 | 41.65362 | 8.88428 | 270° | 9km/h | 20102m | 5.3m/s | 0°C | 0% | 0hPa | 0V | 00:00:00 | 00:00:00 | 00:00:00 | |
| RDZBGO | 2026-09-04 12:23:51 | 41.65405 | 8.88494 | 223° | 20km/h | 20033m | 6.0m/s | 0°C | 0% | 0hPa | 0V | 00:00:00 | 00:00:00 | 00:00:00 | |
| RDZ2B | 2026-09-04 12:23:44 | 41.65428 | 8.88518 | 239° | 18km/h | 19997m | 5.6m/s | 0°C | 0% | 0hPa | 0V | 00:00:00 | 00:00:00 | 00:00:00 | |
| RDZBGO | 2026-09-04 12:23:30 | 41.65479 | 8.88547 | 219° | 9km/h | 19929m | 4.6m/s | 0°C | 0% | 0hPa | 0V | 00:00:00 | 00:00:00 | 00:00:00 | |
| RDZ2B | 2026-09-04 12:23:23 | 41.65496 | 8.88566 | 188° | 11km/h | 19896m | 6.7m/s | 0°C | 0% | 0hPa | 0V | 00:00:00 | 00:00:00 | 00:00:00 | |
| RDZBGO | 2026-09-04 12:23:09 | 41.65504 | 8.88580 | 319° | 15km/h | 19825m | 5.7m/s | 0°C | 0% | 0hPa | 0V | 00:00:00 | 00:00:00 | 00:00:00 | |
| RDZ2B | 2026-09-04 12:23:00 | 41.65503 | 8.88590 | 298° | 15km/h | 19782m | 5.6m/s | 0°C | 0% | 0hPa | 0V | 00:00:00 | 00:00:00 | 00:00:00 | |
| RDZBGO | 2026-09-04 12:22:49 | 41.65497 | 8.88599 | 267° | 20km/h | 19732m | 1.4m/s | 0°C | 0% | 0hPa | 0V | 00:00:00 | 00:00:00 | 00:00:00 | |
| RDZ2B | 2026-09-04 12:22:40 | 41.65499 | 8.88595 | 221° | 13km/h | 19690m | 3.4m/s | 0°C | 0% | 0hPa | 0V | 00:00:00 | 00:00:00 | 00:00:00 | |
| RDZBGO | 2026-09-04 12:22:27 | 41.65491 | 8.88573 | 117° | 15km/h | 19632m | 5.1m/s | 0°C | 0% | 0hPa | 0V | 00:00:00 | 00:00:00 | 00:00:00 | |
| RDZ2B | 2026-09-04 12:22:19 | 41.65496 | 8.88585 | 130° | 15km/h | 19592m | 4.3m/s | 0°C | 0% | 0hPa | 0V | 00:00:00 | 00:00:00 | 00:00:00 | |
| RDZBGO | 2026-09-04 12:22:06 | 41.65512 | 8.88598 | 222° | 18km/h | 19534m | 4.2m/s | 0°C | 0% | 0hPa | 0V | 00:00:00 | 00:00:00 | 00:00:00 | |
| RDZ2B | 2026-09-04 12:21:59 | 41.65532 | 8.88608 | 258° | 11km/h | 19503m | 3.5m/s | 0°C | 0% | 0hPa | 0V | 00:00:00 | 00:00:00 | 00:00:00 | |
| RDZBGO | 2026-09-04 12:21:45 | 41.65561 | 8.88620 | 194° | 26km/h | 19440m | 3.6m/s | 0°C | 0% | 0hPa | 0V | 00:00:00 | 00:00:00 | 00:00:00 | |
| RDZ2B | 2026-09-04 12:21:38 | 41.65583 | 8.88633 | 163° | 20km/h | 19410m | 4.9m/s | 0°C | 0% | 0hPa | 0V | 00:00:00 | 00:00:00 | 00:00:00 | |
| RDZBGO | 2026-09-04 12:21:24 | 41.65620 | 8.88627 | 278° | 7km/h | 19346m | 3.4m/s | 0°C | 0% | 0hPa | 0V | 00:00:00 | 00:00:00 | 00:00:00 | |
| RDZ2B | 2026-09-04 12:21:17 | 41.65631 | 8.88616 | 178° | 9km/h | 19315m | 3.9m/s | 0°C | 0% | 0hPa | 0V | 00:00:00 | 00:00:00 | 00:00:00 | |
| RDZBGO | 2026-09-04 12:21:04 | 41.65652 | 8.88610 | 42° | 20km/h | 19258m | 2.7m/s | 0°C | 0% | 0hPa | 0V | 00:00:00 | 00:00:00 | 00:00:00 | |
| RDZ2B | 2026-09-04 12:20:57 | 41.65674 | 8.88624 | 217° | 7km/h | 19229m | 5.5m/s | 0°C | 0% | 0hPa | 0V | 00:00:00 | 00:00:00 | 00:00:00 | |
| RDZBGO | 2026-09-04 12:20:43 | 41.65695 | 8.88639 | 215° | 13km/h | 19168m | 4.4m/s | 0°C | 0% | 0hPa | 0V | 00:00:00 | 00:00:00 | 00:00:00 | |
| RDZ2B | 2026-09-04 12:20:37 | 41.65712 | 8.88653 | 204° | 20km/h | 19141m | 4.6m/s | 0°C | 0% | 0hPa | 0V | 00:00:00 | 00:00:00 | 00:00:00 | |
| RDZBGO | 2026-09-04 12:20:22 | 41.65786 | 8.88673 | 188° | 20km/h | 19073m | 3.5m/s | 0°C | 0% | 0hPa | 0V | 00:00:00 | 00:00:00 | 00:00:00 | |
| RDZ2B | 2026-09-04 12:20:13 | 41.65828 | 8.88680 | 207° | 22km/h | 19035m | 3.6m/s | 0°C | 0% | 0hPa | 0V | 00:00:00 | 00:00:00 | 00:00:00 | |
| RDZBGO | 2026-09-04 12:20:02 | 41.65892 | 8.88675 | 169° | 31km/h | 18984m | 5.3m/s | 0°C | 0% | 0hPa | 0V | 00:00:00 | 00:00:00 | 00:00:00 | |
| RDZ2B | 2026-09-04 12:19:53 | 41.65951 | 8.88665 | 154° | 27km/h | 18944m | 6.3m/s | 0°C | 0% | 0hPa | 0V | 00:00:00 | 00:00:00 | 00:00:00 | |
| RDZ2B | 2026-09-04 12:19:31 | 41.66058 | 8.88612 | 187° | 26km/h | 18840m | 4.3m/s | 0°C | 0% | 0hPa | 0V | 00:00:00 | 00:00:00 | 00:00:00 | |
| IW2NTF | 2026-09-04 12:19:29 | 41.66085 | 8.88579 | 146° | 22km/h | 18803m | 5.2m/s | 0°C | 0% | 0hPa | 0V | 00:00:00 | 00:00:00 | 00:00:00 | |
| IW2NTF | 2026-09-04 12:19:19 | 41.66122 | 8.88552 | 203° | 13km/h | 18757m | 4.7m/s | 0°C | 0% | 0hPa | 0V | 00:00:00 | 00:00:00 | 00:00:00 | |
| RDZBGO | 2026-09-04 12:19:19 | 41.66103 | 8.88571 | 174° | 7km/h | 18784m | 3.8m/s | 0°C | 0% | 0hPa | 0V | 00:00:00 | 00:00:00 | 00:00:00 | |
| RDZ2B | 2026-09-04 12:19:10 | 41.66130 | 8.88551 | 135° | 16km/h | 18743m | 5.2m/s | 0°C | 0% | 0hPa | 0V | 00:00:00 | 00:00:00 | 00:00:00 | |
| IW2NTF | 2026-09-04 12:19:03 | 41.66144 | 8.88527 | 15° | 4km/h | 18698m | 2.8m/s | 0°C | 0% | 0hPa | 0V | 00:00:00 | 00:00:00 | 00:00:00 | |
| RDZBGO | 2026-09-04 12:18:59 | 41.66144 | 8.88526 | 112° | 5km/h | 18694m | 5.3m/s | 0°C | 0% | 0hPa | 0V | 00:00:00 | 00:00:00 | 00:00:00 | |
| RDZ2B | 2026-09-04 12:18:49 | 41.66162 | 8.88516 | 186° | 4km/h | 18645m | 3.6m/s | 0°C | 0% | 0hPa | 0V | 00:00:00 | 00:00:00 | 00:00:00 | |
| RDZ2B | 2026-09-04 12:18:29 | 41.66194 | 8.88498 | 162° | 16km/h | 18549m | 5.8m/s | 0°C | 0% | 0hPa | 0V | 00:00:00 | 00:00:00 | 00:00:00 | |
| RDZBGO | 2026-09-04 12:18:18 | 41.66230 | 8.88491 | 216° | 5km/h | 18494m | 3.1m/s | 0°C | 0% | 0hPa | 0V | 00:00:00 | 00:00:00 | 00:00:00 | |
| RDZ2B | 2026-09-04 12:18:08 | 41.66280 | 8.88467 | 169° | 29km/h | 18443m | 3.7m/s | 0°C | 0% | 0hPa | 0V | 00:00:00 | 00:00:00 | 00:00:00 | |
| RDZBGO | 2026-09-04 12:17:56 | 41.66351 | 8.88430 | 156° | 33km/h | 18385m | 4.6m/s | 0°C | 0% | 0hPa | 0V | 00:00:00 | 00:00:00 | 00:00:00 | |
| RDZ2B | 2026-09-04 12:17:47 | 41.66413 | 8.88386 | 144° | 31km/h | 18345m | 4.3m/s | 0°C | 0% | 0hPa | 0V | 00:00:00 | 00:00:00 | 00:00:00 | |
| RDZBGO | 2026-09-04 12:17:35 | 41.66497 | 8.88301 | 148° | 44km/h | 18288m | 5.3m/s | 0°C | 0% | 0hPa | 0V | 00:00:00 | 00:00:00 | 00:00:00 | |
| RDZ2B | 2026-09-04 12:17:27 | 41.66553 | 8.88244 | 138° | 46km/h | 18254m | 3.7m/s | 0°C | 0% | 0hPa | 0V | 00:00:00 | 00:00:00 | 00:00:00 | |
| RDZBGO | 2026-09-04 12:17:15 | 41.66614 | 8.88123 | 133° | 35km/h | 18201m | 4.9m/s | 0°C | 0% | 0hPa | 0V | 00:00:00 | 00:00:00 | 00:00:00 | |
| RDZ2B | 2026-09-04 12:17:03 | 41.66656 | 8.88035 | 125° | 31km/h | 18147m | 5.0m/s | 0°C | 0% | 0hPa | 0V | 00:00:00 | 00:00:00 | 00:00:00 | |
| RDZBGO | 2026-09-04 12:16:54 | 41.66679 | 8.87951 | 98° | 33km/h | 18108m | 5.4m/s | 0°C | 0% | 0hPa | 0V | 00:00:00 | 00:00:00 | 00:00:00 | |
| RDZ2B | 2026-09-04 12:16:40 | 41.66683 | 8.87851 | 49° | 13km/h | 18041m | 3.7m/s | 0°C | 0% | 0hPa | 0V | 00:00:00 | 00:00:00 | 00:00:00 | |
| RDZBGO | 2026-09-04 12:16:34 | 41.66674 | 8.87817 | 69° | 26km/h | 18012m | 2.8m/s | 0°C | 0% | 0hPa | 0V | 00:00:00 | 00:00:00 | 00:00:00 | |
| RDZ2B | 2026-09-04 12:16:19 | 41.66648 | 8.87764 | 94° | 2km/h | 17943m | 3.7m/s | 0°C | 0% | 0hPa | 0V | 00:00:00 | 00:00:00 | 00:00:00 | |
| RDZBGO | 2026-09-04 12:16:13 | 41.66630 | 8.87752 | 272° | 7km/h | 17918m | 4.5m/s | 0°C | 0% | 0hPa | 0V | 00:00:00 | 00:00:00 | 00:00:00 | |
| RDZ2B | 2026-09-04 12:15:59 | 41.66599 | 8.87765 | 311° | 16km/h | 17857m | 3.6m/s | 0°C | 0% | 0hPa | 0V | 00:00:00 | 00:00:00 | 00:00:00 | |
| RDZBGO | 2026-09-04 12:15:53 | 41.66589 | 8.87781 | 207° | 22km/h | 17831m | 3.0m/s | 0°C | 0% | 0hPa | 0V | 00:00:00 | 00:00:00 | 00:00:00 | |
| RDZ2B | 2026-09-04 12:15:39 | 41.66584 | 8.87852 | 295° | 29km/h | 17772m | 3.4m/s | 0°C | 0% | 0hPa | 0V | 00:00:00 | 00:00:00 | 00:00:00 | |
| RDZBGO | 2026-09-04 12:15:33 | 41.66588 | 8.87887 | 260° | 26km/h | 17746m | 3.6m/s | 0°C | 0% | 0hPa | 0V | 00:00:00 | 00:00:00 | 00:00:00 | |
| RDZ2B | 2026-09-04 12:15:18 | 41.66600 | 8.87965 | 224° | 24km/h | 17681m | 4.2m/s | 0°C | 0% | 0hPa | 0V | 00:00:00 | 00:00:00 | 00:00:00 | |
| RDZBGO | 2026-09-04 12:15:12 | 41.66605 | 8.87996 | 211° | 9km/h | 17655m | 3.3m/s | 0°C | 0% | 0hPa | 0V | 00:00:00 | 00:00:00 | 00:00:00 | |
| RDZ2B | 2026-09-04 12:14:55 | 41.66649 | 8.88079 | 204° | 5km/h | 17582m | 3.4m/s | 0°C | 0% | 0hPa | 0V | 00:00:00 | 00:00:00 | 00:00:00 | |
| RDZBGO | 2026-09-04 12:14:52 | 41.66652 | 8.88091 | 262° | 20km/h | 17568m | 3.0m/s | 0°C | 0% | 0hPa | 0V | 00:00:00 | 00:00:00 | 00:00:00 | |
| RDZ2B | 2026-09-04 12:14:35 | 41.66677 | 8.88125 | 227° | 15km/h | 17492m | 4.0m/s | 0°C | 0% | 0hPa | 0V | 00:00:00 | 00:00:00 | 00:00:00 | |
| RDZBGO | 2026-09-04 12:14:29 | 41.66691 | 8.88130 | 210° | 13km/h | 17466m | 3.9m/s | 0°C | 0% | 0hPa | 0V | 00:00:00 | 00:00:00 | 00:00:00 | |
| RDZ2B | 2026-09-04 12:14:15 | 41.66723 | 8.88139 | 167° | 5km/h | 17403m | 4.5m/s | 0°C | 0% | 0hPa | 0V | 00:00:00 | 00:00:00 | 00:00:00 | |
| RDZBGO | 2026-09-04 12:14:08 | 41.66744 | 8.88137 | 224° | 13km/h | 17371m | 4.7m/s | 0°C | 0% | 0hPa | 0V | 00:00:00 | 00:00:00 | 00:00:00 | |
| RDZ2B | 2026-09-04 12:13:54 | 41.66796 | 8.88114 | 144° | 16km/h | 17309m | 4.4m/s | 0°C | 0% | 0hPa | 0V | 00:00:00 | 00:00:00 | 00:00:00 | |
| RDZBGO | 2026-09-04 12:13:44 | 41.66839 | 8.88066 | 96° | 7km/h | 17260m | 5.3m/s | 0°C | 0% | 0hPa | 0V | 00:00:00 | 00:00:00 | 00:00:00 | |
| RDZ2B | 2026-09-04 12:13:33 | 41.66883 | 8.88005 | 161° | 35km/h | 17208m | 3.8m/s | 0°C | 0% | 0hPa | 0V | 00:00:00 | 00:00:00 | 00:00:00 | |
| RDZBGO | 2026-09-04 12:13:23 | 41.66930 | 8.87925 | 141° | 31km/h | 17163m | 4.4m/s | 0°C | 0% | 0hPa | 0V | 00:00:00 | 00:00:00 | 00:00:00 | |
| RDZ2B | 2026-09-04 12:13:13 | 41.66976 | 8.87858 | 142° | 22km/h | 17116m | 4.3m/s | 0°C | 0% | 0hPa | 0V | 00:00:00 | 00:00:00 | 00:00:00 | |
| RDZBGO | 2026-09-04 12:12:58 | 41.67038 | 8.87760 | 100° | 24km/h | 17048m | 4.0m/s | 0°C | 0% | 0hPa | 0V | 00:00:00 | 00:00:00 | 00:00:00 | |
| RDZ2B | 2026-09-04 12:12:52 | 41.67064 | 8.87729 | 121° | 22km/h | 17022m | 4.6m/s | 0°C | 0% | 0hPa | 0V | 00:00:00 | 00:00:00 | 00:00:00 | |
| RDZ2B | 2026-09-04 12:12:32 | 41.67132 | 8.87595 | 116° | 11km/h | 16933m | 3.0m/s | 0°C | 0% | 0hPa | 0V | 00:00:00 | 00:00:00 | 00:00:00 | |
| RDZBGO | 2026-09-04 12:12:29 | 41.67137 | 8.87573 | 109° | 35km/h | 16918m | 4.5m/s | 0°C | 0% | 0hPa | 0V | 00:00:00 | 00:00:00 | 00:00:00 | |
| RDZ2B | 2026-09-04 12:12:12 | 41.67171 | 8.87472 | 100° | 27km/h | 16841m | 2.8m/s | 0°C | 0% | 0hPa | 0V | 00:00:00 | 00:00:00 | 00:00:00 | |
| RDZBGO | 2026-09-04 12:11:57 | 41.67186 | 8.87418 | 0° | 0km/h | 16772m | 3.9m/s | 0°C | 0% | 0hPa | 0V | 00:00:00 | 00:00:00 | 00:00:00 | |
| RDZ2B | 2026-09-04 12:11:52 | 41.67187 | 8.87410 | 172° | 9km/h | 16752m | 4.7m/s | 0°C | 0% | 0hPa | 0V | 00:00:00 | 00:00:00 | 00:00:00 | |
| RDZBGO | 2026-09-04 12:11:36 | 41.67209 | 8.87387 | 131° | 16km/h | 16682m | 3.0m/s | 0°C | 0% | 0hPa | 0V | 00:00:00 | 00:00:00 | 00:00:00 | |
| RDZ2B | 2026-09-04 12:11:31 | 41.67227 | 8.87377 | 70° | 9km/h | 16659m | 3.5m/s | 0°C | 0% | 0hPa | 0V | 00:00:00 | 00:00:00 | 00:00:00 | |
| RDZBGO | 2026-09-04 12:11:12 | 41.67276 | 8.87326 | 105° | 15km/h | 16581m | 4.7m/s | 0°C | 0% | 0hPa | 0V | 00:00:00 | 00:00:00 | 00:00:00 | |
| RDZ2B | 2026-09-04 12:11:10 | 41.67279 | 8.87315 | 125° | 15km/h | 16574m | 4.2m/s | 0°C | 0% | 0hPa | 0V | 00:00:00 | 00:00:00 | 00:00:00 | |
| RDZ2B | 2026-09-04 12:10:50 | 41.67328 | 8.87254 | 181° | 33km/h | 16488m | 5.1m/s | 0°C | 0% | 0hPa | 0V | 00:00:00 | 00:00:00 | 00:00:00 | |
| RDZ2B | 2026-09-04 12:10:29 | 41.67443 | 8.87230 | 135° | 22km/h | 16399m | 4.9m/s | 0°C | 0% | 0hPa | 0V | 00:00:00 | 00:00:00 | 00:00:00 | |
| RDZBGO | 2026-09-04 12:10:24 | 41.67469 | 8.87206 | 150° | 27km/h | 16377m | 5.4m/s | 0°C | 0% | 0hPa | 0V | 00:00:00 | 00:00:00 | 00:00:00 | |
| RDZ2B | 2026-09-04 12:10:08 | 41.67530 | 8.87108 | 121° | 20km/h | 16308m | 3.8m/s | 0°C | 0% | 0hPa | 0V | 00:00:00 | 00:00:00 | 00:00:00 | |
| RDZBGO | 2026-09-04 12:10:00 | 41.67557 | 8.87058 | 108° | 29km/h | 16273m | 4.9m/s | 0°C | 0% | 0hPa | 0V | 00:00:00 | 00:00:00 | 00:00:00 | |
| IW2NTF | 2026-09-04 12:09:58 | 41.67584 | 8.87010 | 119° | 20km/h | 16241m | 5m/s | 0°C | 0% | 0hPa | 0V | 00:00:00 | 00:00:00 | 00:00:00 | |
| RDZ2B | 2026-09-04 12:09:42 | 41.67617 | 8.86958 | 120° | 27km/h | 16198m | 4.6m/s | 0°C | 0% | 0hPa | 0V | 00:00:00 | 00:00:00 | 00:00:00 | |
| RDZBGO | 2026-09-04 12:09:39 | 41.67629 | 8.86938 | 151° | 18km/h | 16185m | 4.1m/s | 0°C | 0% | 0hPa | 0V | 00:00:00 | 00:00:00 | 00:00:00 | |
| IW2NTF | 2026-09-04 12:09:37 | 41.67665 | 8.86892 | 120° | 26km/h | 16146m | 4.4m/s | 0°C | 0% | 0hPa | 0V | 00:00:00 | 00:00:00 | 00:00:00 | |
| IW2NTF | 2026-09-04 12:09:26 | 41.67708 | 8.86839 | 162° | 18km/h | 16104m | 3.8m/s | 0°C | 0% | 0hPa | 0V | 00:00:00 | 00:00:00 | 00:00:00 | |
| RDZ2B | 2026-09-04 12:09:21 | 41.67702 | 8.86842 | 154° | 27km/h | 16109m | 4.8m/s | 0°C | 0% | 0hPa | 0V | 00:00:00 | 00:00:00 | 00:00:00 | |
| RDZBGO | 2026-09-04 12:09:17 | 41.67719 | 8.86826 | 123° | 27km/h | 16092m | 3.4m/s | 0°C | 0% | 0hPa | 0V | 00:00:00 | 00:00:00 | 00:00:00 | |
| IW2NTF | 2026-09-04 12:09:14 | 41.67765 | 8.86781 | 142° | 20km/h | 16055m | 4m/s | 0°C | 0% | 0hPa | 0V | 00:00:00 | 00:00:00 | 00:00:00 | |
| IW2NTF | 2026-09-04 12:09:03 | 41.67812 | 8.86737 | 135° | 20km/h | 16010m | 4m/s | 0°C | 0% | 0hPa | 0V | 00:00:00 | 00:00:00 | 00:00:00 | |
| RDZ2B | 2026-09-04 12:09:01 | 41.67799 | 8.86757 | 146° | 22km/h | 16024m | 5.7m/s | 0°C | 0% | 0hPa | 0V | 00:00:00 | 00:00:00 | 00:00:00 | |
| RDZBGO | 2026-09-04 12:08:56 | 41.67819 | 8.86734 | 187° | 13km/h | 16002m | 2.8m/s | 0°C | 0% | 0hPa | 0V | 00:00:00 | 00:00:00 | 00:00:00 | |
| IW2NTF | 2026-09-04 12:08:45 | 41.67879 | 8.86673 | 131° | 35km/h | 15938m | 3m/s | 0°C | 0% | 0hPa | 0V | 00:00:00 | 00:00:00 | 00:00:00 | |
| RDZ2B | 2026-09-04 12:08:41 | 41.67875 | 8.86680 | 120° | 24km/h | 15942m | 4.4m/s | 0°C | 0% | 0hPa | 0V | 00:00:00 | 00:00:00 | 00:00:00 | |
| RDZBGO | 2026-09-04 12:08:36 | 41.67915 | 8.86653 | 151° | 16km/h | 15918m | 5.2m/s | 0°C | 0% | 0hPa | 0V | 00:00:00 | 00:00:00 | 00:00:00 | |
| RDZ2B | 2026-09-04 12:08:19 | 41.68022 | 8.86556 | 151° | 37km/h | 15842m | 2.2m/s | 0°C | 0% | 0hPa | 0V | 00:00:00 | 00:00:00 | 00:00:00 | |
| IW2NTF | 2026-09-04 12:08:14 | 41.68095 | 8.86479 | 138° | 35km/h | 15800m | 4.2m/s | 0°C | 0% | 0hPa | 0V | 00:00:00 | 00:00:00 | 00:00:00 | |
| RDZBGO | 2026-09-04 12:08:14 | 41.68056 | 8.86517 | 155° | 31km/h | 15822m | 2.7m/s | 0°C | 0% | 0hPa | 0V | 00:00:00 | 00:00:00 | 00:00:00 | |
| IW2NTF | 2026-09-04 12:08:03 | 41.68174 | 8.86393 | 130° | 38km/h | 15757m | 4.8m/s | 0°C | 0% | 0hPa | 0V | 00:00:00 | 00:00:00 | 00:00:00 | |
| RDZ2B | 2026-09-04 12:07:59 | 41.68167 | 8.86403 | 132° | 44km/h | 15761m | 3.6m/s | 0°C | 0% | 0hPa | 0V | 00:00:00 | 00:00:00 | 00:00:00 | |
| IW2NTF | 2026-09-04 12:07:53 | 41.68243 | 8.86300 | 138° | 24km/h | 15714m | 5.6m/s | 0°C | 0% | 0hPa | 0V | 00:00:00 | 00:00:00 | 00:00:00 | |
| RDZ2B | 2026-09-04 12:07:35 | 41.68313 | 8.86217 | 132° | 31km/h | 15663m | 4.0m/s | 0°C | 0% | 0hPa | 0V | 00:00:00 | 00:00:00 | 00:00:00 | |
| RDZBGO | 2026-09-04 12:07:33 | 41.68327 | 8.86202 | 147° | 42km/h | 15655m | 5.3m/s | 0°C | 0% | 0hPa | 0V | 00:00:00 | 00:00:00 | 00:00:00 | |
| IW2NTF | 2026-09-04 12:07:23 | 41.68438 | 8.86103 | 140° | 46km/h | 15580m | 9.2m/s | 0°C | 0% | 0hPa | 0V | 00:00:00 | 00:00:00 | 00:00:00 | |
| RDZ2B | 2026-09-04 12:07:15 | 41.68458 | 8.86089 | 164° | 47km/h | 15570m | 5.3m/s | 0°C | 0% | 0hPa | 0V | 00:00:00 | 00:00:00 | 00:00:00 | |
| RDZBGO | 2026-09-04 12:07:12 | 41.68474 | 8.86080 | 136° | 22km/h | 15558m | 8.6m/s | 0°C | 0% | 0hPa | 0V | 00:00:00 | 00:00:00 | 00:00:00 | |
| RDZ2B | 2026-09-04 12:06:54 | 41.68584 | 8.86005 | 158° | 22km/h | 15459m | 4.7m/s | 0°C | 0% | 0hPa | 0V | 00:00:00 | 00:00:00 | 00:00:00 | |
| RDZBGO | 2026-09-04 12:06:51 | 41.68603 | 8.85999 | 187° | 27km/h | 15445m | 5.4m/s | 0°C | 0% | 0hPa | 0V | 00:00:00 | 00:00:00 | 00:00:00 | |
| RDZ2B | 2026-09-04 12:06:31 | 41.68760 | 8.85983 | 183° | 29km/h | 15356m | 4.2m/s | 0°C | 0% | 0hPa | 0V | 00:00:00 | 00:00:00 | 00:00:00 | |
| RDZ2B | 2026-09-04 12:06:11 | 41.68921 | 8.85906 | 145° | 40km/h | 15270m | 4.4m/s | 0°C | 0% | 0hPa | 0V | 00:00:00 | 00:00:00 | 00:00:00 | |
| RDZBGO | 2026-09-04 12:06:10 | 41.68929 | 8.85898 | 150° | 42km/h | 15266m | 4.3m/s | 0°C | 0% | 0hPa | 0V | 00:00:00 | 00:00:00 | 00:00:00 | |
| RDZBGO | 2026-09-04 12:05:49 | 41.69122 | 8.85799 | 147° | 38km/h | 15171m | 3.6m/s | 0°C | 0% | 0hPa | 0V | 00:00:00 | 00:00:00 | 00:00:00 | |
| RDZ2B | 2026-09-04 12:05:48 | 41.69130 | 8.85792 | 148° | 35km/h | 15168m | 3.3m/s | 0°C | 0% | 0hPa | 0V | 00:00:00 | 00:00:00 | 00:00:00 | |
| RDZBGO | 2026-09-04 12:05:28 | 41.69314 | 8.85707 | 166° | 40km/h | 15085m | 5.1m/s | 0°C | 0% | 0hPa | 0V | 00:00:00 | 00:00:00 | 00:00:00 | |
| RDZ2B | 2026-09-04 12:05:27 | 41.69323 | 8.85703 | 161° | 33km/h | 15080m | 5.0m/s | 0°C | 0% | 0hPa | 0V | 00:00:00 | 00:00:00 | 00:00:00 | |
| RDZ2B | 2026-09-04 12:05:07 | 41.69531 | 8.85610 | 158° | 60km/h | 14990m | 3.9m/s | 0°C | 0% | 0hPa | 0V | 00:00:00 | 00:00:00 | 00:00:00 | |
| RDZBGO | 2026-09-04 12:04:47 | 41.69748 | 8.85481 | 163° | 38km/h | 14900m | 5.3m/s | 0°C | 0% | 0hPa | 0V | 00:00:00 | 00:00:00 | 00:00:00 | |
| RDZ2B | 2026-09-04 12:04:46 | 41.69757 | 8.85477 | 163° | 37km/h | 14896m | 2.8m/s | 0°C | 0% | 0hPa | 0V | 00:00:00 | 00:00:00 | 00:00:00 | |
| RDZBGO | 2026-09-04 12:04:27 | 41.69946 | 8.85365 | 169° | 38km/h | 14812m | 5.2m/s | 0°C | 0% | 0hPa | 0V | 00:00:00 | 00:00:00 | 00:00:00 | |
| RDZ2B | 2026-09-04 12:04:26 | 41.69956 | 8.85361 | 160° | 42km/h | 14808m | 3.8m/s | 0°C | 0% | 0hPa | 0V | 00:00:00 | 00:00:00 | 00:00:00 | |
| RDZ2B | 2026-09-04 12:04:06 | 41.70173 | 8.85269 | 173° | 49km/h | 14715m | 2.9m/s | 0°C | 0% | 0hPa | 0V | 00:00:00 | 00:00:00 | 00:00:00 | |
| RDZ2B | 2026-09-04 12:03:45 | 41.70408 | 8.85168 | 165° | 51km/h | 14628m | 6.0m/s | 0°C | 0% | 0hPa | 0V | 00:00:00 | 00:00:00 | 00:00:00 | |
| RDZ2B | 2026-09-04 12:03:25 | 41.70626 | 8.85070 | 171° | 38km/h | 14538m | 4.5m/s | 0°C | 0% | 0hPa | 0V | 00:00:00 | 00:00:00 | 00:00:00 | |
| RDZBGO | 2026-09-04 12:03:24 | 41.70637 | 8.85067 | 166° | 47km/h | 14533m | 4.5m/s | 0°C | 0% | 0hPa | 0V | 00:00:00 | 00:00:00 | 00:00:00 | |
| RDZBGO | 2026-09-04 12:03:04 | 41.70851 | 8.85001 | 159° | 35km/h | 14446m | 5.0m/s | 0°C | 0% | 0hPa | 0V | 00:00:00 | 00:00:00 | 00:00:00 | |
| RDZ2B | 2026-09-04 12:02:44 | 41.71047 | 8.84942 | 181° | 38km/h | 14361m | 4.5m/s | 0°C | 0% | 0hPa | 0V | 00:00:00 | 00:00:00 | 00:00:00 | |
| RDZBGO | 2026-09-04 12:02:43 | 41.71057 | 8.84942 | 176° | 40km/h | 14356m | 4.3m/s | 0°C | 0% | 0hPa | 0V | 00:00:00 | 00:00:00 | 00:00:00 | |
| RDZBGO | 2026-09-04 12:02:22 | 41.71290 | 8.84917 | 172° | 42km/h | 14268m | 4.6m/s | 0°C | 0% | 0hPa | 0V | 00:00:00 | 00:00:00 | 00:00:00 | |
| RDZ2B | 2026-09-04 12:02:21 | 41.71301 | 8.84914 | 166° | 46km/h | 14264m | 3.3m/s | 0°C | 0% | 0hPa | 0V | 00:00:00 | 00:00:00 | 00:00:00 | |
| RDZ2B | 2026-09-04 12:02:01 | 41.71561 | 8.84910 | 187° | 51km/h | 14176m | 3.2m/s | 0°C | 0% | 0hPa | 0V | 00:00:00 | 00:00:00 | 00:00:00 | |
| RDZBGO | 2026-09-04 12:01:41 | 41.71815 | 8.84883 | 176° | 53km/h | 14087m | 3.6m/s | 0°C | 0% | 0hPa | 0V | 00:00:00 | 00:00:00 | 00:00:00 | |
| RDZ2B | 2026-09-04 12:01:36 | 41.71874 | 8.84882 | 167° | 51km/h | 14067m | 3.3m/s | 0°C | 0% | 0hPa | 0V | 00:00:00 | 00:00:00 | 00:00:00 | |
| RDZBGO | 2026-09-04 12:01:20 | 41.72045 | 8.84857 | 178° | 40km/h | 14003m | 4.9m/s | 0°C | 0% | 0hPa | 0V | 00:00:00 | 00:00:00 | 00:00:00 | |
| RDZBGO | 2026-09-04 12:01:00 | 41.72262 | 8.84875 | 189° | 44km/h | 13915m | 3.1m/s | 0°C | 0% | 0hPa | 0V | 00:00:00 | 00:00:00 | 00:00:00 | |
| RDZBGO | 2026-09-04 12:00:39 | 41.72519 | 8.84896 | 196° | 44km/h | 13829m | 2.9m/s | 0°C | 0% | 0hPa | 0V | 00:00:00 | 00:00:00 | 00:00:00 | |
| RDZBGO | 2026-09-04 12:00:18 | 41.72800 | 8.84945 | 190° | 60km/h | 13746m | 4.1m/s | 0°C | 0% | 0hPa | 0V | 00:00:00 | 00:00:00 | 00:00:00 | |
| RDZBGO | 2026-09-04 11:59:56 | 41.73095 | 8.85048 | 196° | 53km/h | 13658m | 4.9m/s | 0°C | 0% | 0hPa | 0V | 00:00:00 | 00:00:00 | 00:00:00 | |
| RDZBGO | 2026-09-04 11:59:35 | 41.73392 | 8.85144 | 197° | 42km/h | 13574m | 3.0m/s | 0°C | 0% | 0hPa | 0V | 00:00:00 | 00:00:00 | 00:00:00 | |
| RDZBGO | 2026-09-04 11:59:14 | 41.73700 | 8.85231 | 198° | 64km/h | 13489m | 4.7m/s | 0°C | 0% | 0hPa | 0V | 00:00:00 | 00:00:00 | 00:00:00 | |
| RDZBGO | 2026-09-04 11:58:33 | 41.74268 | 8.85390 | 190° | 47km/h | 13326m | 5.5m/s | 0°C | 0% | 0hPa | 0V | 00:00:00 | 00:00:00 | 00:00:00 | |
| RDZBGO | 2026-09-04 11:58:12 | 41.74513 | 8.85456 | 202° | 42km/h | 13242m | 4.0m/s | 0°C | 0% | 0hPa | 0V | 00:00:00 | 00:00:00 | 00:00:00 | |
| RDZBGO | 2026-09-04 11:57:51 | 41.74751 | 8.85530 | 196° | 51km/h | 13153m | 3.1m/s | 0°C | 0% | 0hPa | 0V | 00:00:00 | 00:00:00 | 00:00:00 | |
| RDZBGO | 2026-09-04 11:57:31 | 41.74990 | 8.85593 | 169° | 46km/h | 13071m | 2.7m/s | 0°C | 0% | 0hPa | 0V | 00:00:00 | 00:00:00 | 00:00:00 | |
| RDZBGO | 2026-09-04 11:57:11 | 41.75259 | 8.85630 | 191° | 58km/h | 12987m | 5.7m/s | 0°C | 0% | 0hPa | 0V | 00:00:00 | 00:00:00 | 00:00:00 | |
| RDZBGO | 2026-09-04 11:56:50 | 41.75543 | 8.85684 | 171° | 46km/h | 12901m | 3.6m/s | 0°C | 0% | 0hPa | 0V | 00:00:00 | 00:00:00 | 00:00:00 | |
| RDZBGO | 2026-09-04 11:56:26 | 41.75847 | 8.85719 | 189° | 58km/h | 12789m | 3.5m/s | 0°C | 0% | 0hPa | 0V | 00:00:00 | 00:00:00 | 00:00:00 | |
| RDZBGO | 2026-09-04 11:56:05 | 41.76113 | 8.85705 | 162° | 44km/h | 12675m | 4.3m/s | 0°C | 0% | 0hPa | 0V | 00:00:00 | 00:00:00 | 00:00:00 | |
| RDZBGO | 2026-09-04 11:55:44 | 41.76376 | 8.85715 | 185° | 51km/h | 12577m | 4.4m/s | 0°C | 0% | 0hPa | 0V | 00:00:00 | 00:00:00 | 00:00:00 | |
| IW2NTF | 2026-09-04 11:55:31 | 41.76638 | 8.85722 | 170° | 53km/h | 12493m | 3m/s | 0°C | 0% | 0hPa | 0V | 00:00:00 | 00:00:00 | 00:00:00 | |
| RDZBGO | 2026-09-04 11:55:20 | 41.76701 | 8.85727 | 177° | 49km/h | 12474m | 4.6m/s | 0°C | 0% | 0hPa | 0V | 00:00:00 | 00:00:00 | 00:00:00 | |
| RDZ2B | 2026-09-04 11:55:01 | 41.76955 | 8.85719 | 175° | 51km/h | 12396m | 4.4m/s | 0°C | 0% | 0hPa | 0V | 00:00:00 | 00:00:00 | 00:00:00 | |
| RDZBGO | 2026-09-04 11:54:58 | 41.76994 | 8.85719 | 180° | 53km/h | 12383m | 4.0m/s | 0°C | 0% | 0hPa | 0V | 00:00:00 | 00:00:00 | 00:00:00 | |
| RDZ2B | 2026-09-04 11:54:38 | 41.77282 | 8.85727 | 186° | 60km/h | 12304m | 4.6m/s | 0°C | 0% | 0hPa | 0V | 00:00:00 | 00:00:00 | 00:00:00 | |
| RDZBGO | 2026-09-04 11:54:13 | 41.77650 | 8.85728 | 182° | 62km/h | 12197m | 3.9m/s | 0°C | 0% | 0hPa | 0V | 00:00:00 | 00:00:00 | 00:00:00 | |
| RDZBGO | 2026-09-04 11:53:53 | 41.77919 | 8.85719 | 178° | 47km/h | 12117m | 2.7m/s | 0°C | 0% | 0hPa | 0V | 00:00:00 | 00:00:00 | 00:00:00 | |
| RDZ2B | 2026-09-04 11:53:37 | 41.78136 | 8.85733 | 178° | 58km/h | 12054m | 2.4m/s | 0°C | 0% | 0hPa | 0V | 00:00:00 | 00:00:00 | 00:00:00 | |
| RDZBGO | 2026-09-04 11:53:12 | 41.78486 | 8.85754 | 185° | 60km/h | 11956m | 2.6m/s | 0°C | 0% | 0hPa | 0V | 00:00:00 | 00:00:00 | 00:00:00 | |
| RDZBGO | 2026-09-04 11:52:51 | 41.78799 | 8.85782 | 184° | 62km/h | 11873m | 3.2m/s | 0°C | 0% | 0hPa | 0V | 00:00:00 | 00:00:00 | 00:00:00 | |
| RDZBGO | 2026-09-04 11:52:30 | 41.79110 | 8.85815 | 192° | 57km/h | 11790m | 3.3m/s | 0°C | 0% | 0hPa | 0V | 00:00:00 | 00:00:00 | 00:00:00 | |
| RDZBGO | 2026-09-04 11:52:10 | 41.79404 | 8.85861 | 195° | 49km/h | 11707m | 4.2m/s | 0°C | 0% | 0hPa | 0V | 00:00:00 | 00:00:00 | 00:00:00 | |
| RDZBGO | 2026-09-04 11:51:49 | 41.79699 | 8.85888 | 179° | 44km/h | 11617m | 4.3m/s | 0°C | 0% | 0hPa | 0V | 00:00:00 | 00:00:00 | 00:00:00 | |
| RDZBGO | 2026-09-04 11:51:29 | 41.79970 | 8.85900 | 171° | 53km/h | 11516m | 8.1m/s | 0°C | 0% | 0hPa | 0V | 00:00:00 | 00:00:00 | 00:00:00 | |
| RDZBGO | 2026-09-04 11:51:08 | 41.80230 | 8.85906 | 196° | 51km/h | 11409m | 5.8m/s | 0°C | 0% | 0hPa | 0V | 00:00:00 | 00:00:00 | 00:00:00 | |
| RDZ2B | 2026-09-04 11:50:59 | 41.80346 | 8.85915 | 188° | 49km/h | 11362m | 2.0m/s | 0°C | 0% | 0hPa | 0V | 00:00:00 | 00:00:00 | 00:00:00 | |
| RDZBGO | 2026-09-04 11:50:48 | 41.80488 | 8.85902 | 176° | 49km/h | 11314m | 4.8m/s | 0°C | 0% | 0hPa | 0V | 00:00:00 | 00:00:00 | 00:00:00 | |
| RDZBGO | 2026-09-04 11:50:08 | 41.80986 | 8.85875 | 160° | 42km/h | 11121m | 4.4m/s | 0°C | 0% | 0hPa | 0V | 00:00:00 | 00:00:00 | 00:00:00 | |
| RDZBGO | 2026-09-04 11:49:48 | 41.81220 | 8.85816 | 158° | 40km/h | 11018m | 6.1m/s | 0°C | 0% | 0hPa | 0V | 00:00:00 | 00:00:00 | 00:00:00 | |
| RDZBGO | 2026-09-04 11:49:27 | 41.81441 | 8.85748 | 174° | 60km/h | 10915m | 4.8m/s | 0°C | 0% | 0hPa | 0V | 00:00:00 | 00:00:00 | 00:00:00 | |
| RDZBGO | 2026-09-04 11:49:07 | 41.81632 | 8.85659 | 159° | 37km/h | 10811m | 2.8m/s | 0°C | 0% | 0hPa | 0V | 00:00:00 | 00:00:00 | 00:00:00 | |
| RDZBGO | 2026-09-04 11:48:26 | 41.81962 | 8.85484 | 177° | 29km/h | 10580m | 7.4m/s | 0°C | 0% | 0hPa | 0V | 00:00:00 | 00:00:00 | 00:00:00 | |
| RDZ2B | 2026-09-04 11:48:16 | 41.82036 | 8.85432 | 183° | 26km/h | 10529m | 3.1m/s | 0°C | 0% | 0hPa | 0V | 00:00:00 | 00:00:00 | 00:00:00 | |
| RDZBGO | 2026-09-04 11:48:05 | 41.82119 | 8.85376 | 161° | 40km/h | 10481m | 7.4m/s | 0°C | 0% | 0hPa | 0V | 00:00:00 | 00:00:00 | 00:00:00 | |
| RDZ2B | 2026-09-04 11:47:48 | 41.82252 | 8.85281 | 160° | 53km/h | 10396m | 4.4m/s | 0°C | 0% | 0hPa | 0V | 00:00:00 | 00:00:00 | 00:00:00 | |
| RDZBGO | 2026-09-04 11:47:45 | 41.82281 | 8.85266 | 156° | 26km/h | 10382m | 6.3m/s | 0°C | 0% | 0hPa | 0V | 00:00:00 | 00:00:00 | 00:00:00 | |
| RDZ2B | 2026-09-04 11:47:24 | 41.82417 | 8.85145 | 156° | 40km/h | 10273m | 4.4m/s | 0°C | 0% | 0hPa | 0V | 00:00:00 | 00:00:00 | 00:00:00 | |
| RDZBGO | 2026-09-04 11:47:04 | 41.82564 | 8.85027 | 183° | 24km/h | 10176m | 4.0m/s | 0°C | 0% | 0hPa | 0V | 00:00:00 | 00:00:00 | 00:00:00 | |
| RDZBGO | 2026-09-04 11:46:44 | 41.82705 | 8.84910 | 147° | 38km/h | 10077m | 4.8m/s | 0°C | 0% | 0hPa | 0V | 00:00:00 | 00:00:00 | 00:00:00 | |
| RDZBGO | 2026-09-04 11:46:24 | 41.82867 | 8.84763 | 166° | 35km/h | 9965m | 6.6m/s | 0°C | 0% | 0hPa | 0V | 00:00:00 | 00:00:00 | 00:00:00 | |
| RDZ2B | 2026-09-04 11:46:18 | 41.82930 | 8.84730 | 149° | 46km/h | 9925m | 4.7m/s | 0°C | 0% | 0hPa | 0V | 00:00:00 | 00:00:00 | 00:00:00 | |
| RDZBGO | 2026-09-04 11:46:02 | 41.83094 | 8.84621 | 131° | 29km/h | 9829m | 4.2m/s | 0°C | 0% | 0hPa | 0V | 00:00:00 | 00:00:00 | 00:00:00 | |
| RDZ2B | 2026-09-04 11:45:57 | 41.83145 | 8.84582 | 149° | 58km/h | 9803m | 9.7m/s | 0°C | 0% | 0hPa | 0V | 00:00:00 | 00:00:00 | 00:00:00 | |
| RDZBGO | 2026-09-04 11:45:42 | 41.83301 | 8.84497 | 148° | 40km/h | 9720m | 6.0m/s | 0°C | 0% | 0hPa | 0V | 00:00:00 | 00:00:00 | 00:00:00 | |
| RDZ2B | 2026-09-04 11:45:36 | 41.83362 | 8.84449 | 154° | 40km/h | 9683m | 8.5m/s | 0°C | 0% | 0hPa | 0V | 00:00:00 | 00:00:00 | 00:00:00 | |
| RDZBGO | 2026-09-04 11:45:17 | 41.83556 | 8.84317 | 139° | 51km/h | 9571m | 5.2m/s | 0°C | 0% | 0hPa | 0V | 00:00:00 | 00:00:00 | 00:00:00 | |
| RDZ2B | 2026-09-04 11:45:04 | 41.83678 | 8.84193 | 155° | 47km/h | 9503m | 6.8m/s | 0°C | 0% | 0hPa | 0V | 00:00:00 | 00:00:00 | 00:00:00 | |
| RDZBGO | 2026-09-04 11:44:53 | 41.83777 | 8.84093 | 133° | 58km/h | 9446m | 5.2m/s | 0°C | 0% | 0hPa | 0V | 00:00:00 | 00:00:00 | 00:00:00 | |
| RDZBGO | 2026-09-04 11:44:30 | 41.83981 | 8.83901 | 147° | 42km/h | 9331m | 5.9m/s | 0°C | 0% | 0hPa | 0V | 00:00:00 | 00:00:00 | 00:00:00 | |
| RDZ2B | 2026-09-04 11:44:29 | 41.83990 | 8.83894 | 148° | 42km/h | 9324m | 6.4m/s | 0°C | 0% | 0hPa | 0V | 00:00:00 | 00:00:00 | 00:00:00 | |
| RDZBGO | 2026-09-04 11:44:10 | 41.84155 | 8.83735 | 154° | 49km/h | 9214m | 7.9m/s | 0°C | 0% | 0hPa | 0V | 00:00:00 | 00:00:00 | 00:00:00 | |
| RDZ2B | 2026-09-04 11:44:06 | 41.84194 | 8.83709 | 117° | 40km/h | 9191m | 5.6m/s | 0°C | 0% | 0hPa | 0V | 00:00:00 | 00:00:00 | 00:00:00 | |
| RDZBGO | 2026-09-04 11:43:48 | 41.84345 | 8.83587 | 124° | 33km/h | 9109m | 4.1m/s | 0°C | 0% | 0hPa | 0V | 00:00:00 | 00:00:00 | 00:00:00 | |
| RDZ2B | 2026-09-04 11:43:46 | 41.84355 | 8.83571 | 146° | 33km/h | 9098m | 5.2m/s | 0°C | 0% | 0hPa | 0V | 00:00:00 | 00:00:00 | 00:00:00 | |
| RDZBGO | 2026-09-04 11:43:27 | 41.84493 | 8.83445 | 153° | 31km/h | 9005m | 5.4m/s | 0°C | 0% | 0hPa | 0V | 00:00:00 | 00:00:00 | 00:00:00 | |
| RDZ2B | 2026-09-04 11:43:23 | 41.84522 | 8.83429 | 162° | 33km/h | 8984m | 4.7m/s | 0°C | 0% | 0hPa | 0V | 00:00:00 | 00:00:00 | 00:00:00 | |
| RDZBGO | 2026-09-04 11:43:06 | 41.84663 | 8.83316 | 128° | 49km/h | 8898m | 2.1m/s | 0°C | 0% | 0hPa | 0V | 00:00:00 | 00:00:00 | 00:00:00 | |
| RDZ2B | 2026-09-04 11:43:02 | 41.84695 | 8.83296 | 156° | 26km/h | 8875m | 9.3m/s | 0°C | 0% | 0hPa | 0V | 00:00:00 | 00:00:00 | 00:00:00 | |
| RDZBGO | 2026-09-04 11:42:45 | 41.84804 | 8.83184 | 164° | 22km/h | 8786m | 3.0m/s | 0°C | 0% | 0hPa | 0V | 00:00:00 | 00:00:00 | 00:00:00 | |
| RDZ2B | 2026-09-04 11:42:33 | 41.84892 | 8.83119 | 183° | 18km/h | 8732m | 4.7m/s | 0°C | 0% | 0hPa | 0V | 00:00:00 | 00:00:00 | 00:00:00 | |
| RDZBGO | 2026-09-04 11:42:25 | 41.84947 | 8.83061 | 179° | 29km/h | 8685m | 5.2m/s | 0°C | 0% | 0hPa | 0V | 00:00:00 | 00:00:00 | 00:00:00 | |
| RDZ2B | 2026-09-04 11:42:11 | 41.85049 | 8.82974 | 155° | 44km/h | 8614m | 5.1m/s | 0°C | 0% | 0hPa | 0V | 00:00:00 | 00:00:00 | 00:00:00 | |
| RDZBGO | 2026-09-04 11:42:04 | 41.85108 | 8.82932 | 160° | 22km/h | 8576m | 3.3m/s | 0°C | 0% | 0hPa | 0V | 00:00:00 | 00:00:00 | 00:00:00 | |
| RDZBGO | 2026-09-04 11:41:44 | 41.85261 | 8.82812 | 139° | 42km/h | 8472m | 6.4m/s | 0°C | 0% | 0hPa | 0V | 00:00:00 | 00:00:00 | 00:00:00 | |
| RDZ2B | 2026-09-04 11:41:42 | 41.85276 | 8.82799 | 162° | 33km/h | 8461m | 5.3m/s | 0°C | 0% | 0hPa | 0V | 00:00:00 | 00:00:00 | 00:00:00 | |
| RDZBGO | 2026-09-04 11:41:24 | 41.85416 | 8.82700 | 154° | 27km/h | 8365m | 6.0m/s | 0°C | 0% | 0hPa | 0V | 00:00:00 | 00:00:00 | 00:00:00 | |
| RDZ2B | 2026-09-04 11:41:21 | 41.85436 | 8.82681 | 157° | 35km/h | 8353m | 5.1m/s | 0°C | 0% | 0hPa | 0V | 00:00:00 | 00:00:00 | 00:00:00 | |
| RDZBGO | 2026-09-04 11:41:04 | 41.85588 | 8.82576 | 148° | 51km/h | 8259m | 4.5m/s | 0°C | 0% | 0hPa | 0V | 00:00:00 | 00:00:00 | 00:00:00 | |
| RDZ2B | 2026-09-04 11:41:00 | 41.85625 | 8.82556 | 169° | 53km/h | 8239m | 6.2m/s | 0°C | 0% | 0hPa | 0V | 00:00:00 | 00:00:00 | 00:00:00 | |
| RDZBGO | 2026-09-04 11:40:44 | 41.85769 | 8.82470 | 152° | 40km/h | 8155m | 3.8m/s | 0°C | 0% | 0hPa | 0V | 00:00:00 | 00:00:00 | 00:00:00 | |
| RDZ2B | 2026-09-04 11:40:30 | 41.85876 | 8.82392 | 153° | 51km/h | 8086m | 2.7m/s | 0°C | 0% | 0hPa | 0V | 00:00:00 | 00:00:00 | 00:00:00 | |
| RDZBGO | 2026-09-04 11:40:22 | 41.85947 | 8.82365 | 166° | 46km/h | 8046m | 5.8m/s | 0°C | 0% | 0hPa | 0V | 00:00:00 | 00:00:00 | 00:00:00 | |
| RDZ2B | 2026-09-04 11:40:07 | 41.86067 | 8.82298 | 155° | 35km/h | 7953m | 4.5m/s | 0°C | 0% | 0hPa | 0V | 00:00:00 | 00:00:00 | 00:00:00 | |
| RDZBGO | 2026-09-04 11:40:01 | 41.86116 | 8.82272 | 149° | 33km/h | 7922m | 7.2m/s | 0°C | 0% | 0hPa | 0V | 00:00:00 | 00:00:00 | 00:00:00 | |
| RDZ2B | 2026-09-04 11:39:46 | 41.86232 | 8.82224 | 179° | 47km/h | 7844m | 9.6m/s | 0°C | 0% | 0hPa | 0V | 00:00:00 | 00:00:00 | 00:00:00 | |
| RDZBGO | 2026-09-04 11:39:41 | 41.86273 | 8.82196 | 167° | 26km/h | 7814m | 4.9m/s | 0°C | 0% | 0hPa | 0V | 00:00:00 | 00:00:00 | 00:00:00 | |
| RDZ2B | 2026-09-04 11:39:25 | 41.86383 | 8.82123 | 152° | 40km/h | 7734m | 4.9m/s | 0°C | 0% | 0hPa | 0V | 00:00:00 | 00:00:00 | 00:00:00 | |
| RDZBGO | 2026-09-04 11:39:20 | 41.86420 | 8.82101 | 138° | 35km/h | 7707m | 5.3m/s | 0°C | 0% | 0hPa | 0V | 00:00:00 | 00:00:00 | 00:00:00 | |
| RDZ2B | 2026-09-04 11:39:01 | 41.86528 | 8.81987 | 174° | 13km/h | 7614m | 5.6m/s | 0°C | 0% | 0hPa | 0V | 00:00:00 | 00:00:00 | 00:00:00 | |
| RDZBGO | 2026-09-04 11:39:00 | 41.86532 | 8.81986 | 162° | 26km/h | 7608m | 4.2m/s | 0°C | 0% | 0hPa | 0V | 00:00:00 | 00:00:00 | 00:00:00 | |
| RDZBGO | 2026-09-04 11:38:38 | 41.86655 | 8.81890 | 137° | 37km/h | 7472m | 6.4m/s | 0°C | 0% | 0hPa | 0V | 00:00:00 | 00:00:00 | 00:00:00 | |
| RDZ2B | 2026-09-04 11:38:37 | 41.86663 | 8.81881 | 139° | 40km/h | 7465m | 6.4m/s | 0°C | 0% | 0hPa | 0V | 00:00:00 | 00:00:00 | 00:00:00 | |
| RDZBGO | 2026-09-04 11:38:18 | 41.86762 | 8.81797 | 163° | 20km/h | 7368m | 4.0m/s | 0°C | 0% | 0hPa | 0V | 00:00:00 | 00:00:00 | 00:00:00 | |
| RDZ2B | 2026-09-04 11:38:11 | 41.86802 | 8.81768 | 156° | 33km/h | 7331m | 3.8m/s | 0°C | 0% | 0hPa | 0V | 00:00:00 | 00:00:00 | 00:00:00 | |
| RDZBGO | 2026-09-04 11:37:57 | 41.86862 | 8.81714 | 129° | 33km/h | 7250m | 7.8m/s | 0°C | 0% | 0hPa | 0V | 00:00:00 | 00:00:00 | 00:00:00 |